<?xml version="1.0" encoding="UTF-8" standalone="no" ?>
<gpx xmlns="http://www.topografix.com/GPX/1/1" xmlns:xsi="http://www.w3.org/2001/XMLSchema-instance" xsi:schemaLocation="http://www.topografix.com/GPX/1/1 http://www.topografix.com/GPX/1/1/gpx.xsd" version="1.1" creator="VisuGPX - https://www.visugpx.com">
  <metadata>
    <name>Pic du Montcalm, Estats et Verdaguer</name>
    <desc><![CDATA[Ascension du Montcalm et bivouac au sommet. Pic d'Estats, Verdaguer et descente le lendemain]]></desc>
  </metadata>
  <trk>
    <name><![CDATA[2017-09-02 10:17]]></name>
    <desc><![CDATA[<p>Heure de départ: 09/02/2017 10:17<br/>Heure d'arrivée: 09/03/2017 16:19<br/>Distance: 17,7 km (30:01)<br/>Temps déplacement: 20:38<br/>Vitesse moyenne: 0,59 km/h<br/>Vitesse moyenne mouv.: 0,86 km/h<br/>Vitesse Max.: 7,11 km/h<br/>Altitude minimale: 1112 m<br/>Altitude maximale: 3139 m<br/>Vitesse de montée: 219,2 m/h<br/>Vitesse de descente: -427,8 m/h<br/>Gain d'altitude: 2183 m<br/>Perte d'altitude: -2197 m<br/>Temps de montée: 09:57<br/>Temps de descente: 05:08<br/></p><hr align="center" width="480" style="height: 2px; width: 517px"/>]]></desc>
    <trkseg>
      <trkpt lat="42.7141" lon="1.43509">
        <ele>1119.21</ele>
        <time>2017-09-02T08:17:24Z</time>
      </trkpt>
      <trkpt lat="42.71394" lon="1.43497">
        <ele>1118.51</ele>
        <time>2017-09-02T08:36:41Z</time>
      </trkpt>
      <trkpt lat="42.71376" lon="1.43486">
        <ele>1118.29</ele>
        <time>2017-09-02T08:36:58Z</time>
      </trkpt>
      <trkpt lat="42.71358" lon="1.43479">
        <ele>1118.85</ele>
        <time>2017-09-02T08:37:14Z</time>
      </trkpt>
      <trkpt lat="42.71339" lon="1.43476">
        <ele>1119.39</ele>
        <time>2017-09-02T08:37:32Z</time>
      </trkpt>
      <trkpt lat="42.71323" lon="1.43465">
        <ele>1125.81</ele>
        <time>2017-09-02T08:37:50Z</time>
      </trkpt>
      <trkpt lat="42.71308" lon="1.43449">
        <ele>1128.44</ele>
        <time>2017-09-02T08:38:08Z</time>
      </trkpt>
      <trkpt lat="42.71297" lon="1.43429">
        <ele>1127.13</ele>
        <time>2017-09-02T08:38:23Z</time>
      </trkpt>
      <trkpt lat="42.7129" lon="1.43405">
        <ele>1126.9</ele>
        <time>2017-09-02T08:38:46Z</time>
      </trkpt>
      <trkpt lat="42.71279" lon="1.43386">
        <ele>1129.09</ele>
        <time>2017-09-02T08:39:00Z</time>
      </trkpt>
      <trkpt lat="42.71265" lon="1.43368">
        <ele>1128.32</ele>
        <time>2017-09-02T08:39:18Z</time>
      </trkpt>
      <trkpt lat="42.71254" lon="1.43346">
        <ele>1129.18</ele>
        <time>2017-09-02T08:39:36Z</time>
      </trkpt>
      <trkpt lat="42.71245" lon="1.43323">
        <ele>1132.74</ele>
        <time>2017-09-02T08:39:56Z</time>
      </trkpt>
      <trkpt lat="42.71227" lon="1.43313">
        <ele>1135.61</ele>
        <time>2017-09-02T08:40:32Z</time>
      </trkpt>
      <trkpt lat="42.71216" lon="1.43293">
        <ele>1139.51</ele>
        <time>2017-09-02T08:41:04Z</time>
      </trkpt>
      <trkpt lat="42.71204" lon="1.43269">
        <ele>1137.74</ele>
        <time>2017-09-02T08:42:19Z</time>
      </trkpt>
      <trkpt lat="42.71196" lon="1.43247">
        <ele>1144.91</ele>
        <time>2017-09-02T08:43:33Z</time>
      </trkpt>
      <trkpt lat="42.71184" lon="1.43228">
        <ele>1144.09</ele>
        <time>2017-09-02T08:43:47Z</time>
      </trkpt>
      <trkpt lat="42.71201" lon="1.43235">
        <ele>1146.03</ele>
        <time>2017-09-02T08:46:14Z</time>
      </trkpt>
      <trkpt lat="42.7121" lon="1.43259">
        <ele>1145.11</ele>
        <time>2017-09-02T08:46:55Z</time>
      </trkpt>
      <trkpt lat="42.71219" lon="1.43281">
        <ele>1143.12</ele>
        <time>2017-09-02T08:47:10Z</time>
      </trkpt>
      <trkpt lat="42.71233" lon="1.43298">
        <ele>1148.63</ele>
        <time>2017-09-02T08:47:32Z</time>
      </trkpt>
      <trkpt lat="42.71243" lon="1.4332">
        <ele>1136.27</ele>
        <time>2017-09-02T08:48:07Z</time>
      </trkpt>
      <trkpt lat="42.71256" lon="1.43338">
        <ele>1136.81</ele>
        <time>2017-09-02T08:48:29Z</time>
      </trkpt>
      <trkpt lat="42.71261" lon="1.43364">
        <ele>1144.97</ele>
        <time>2017-09-02T08:48:49Z</time>
      </trkpt>
      <trkpt lat="42.71269" lon="1.43389">
        <ele>1147.14</ele>
        <time>2017-09-02T08:49:25Z</time>
      </trkpt>
      <trkpt lat="42.71261" lon="1.43411">
        <ele>1146.27</ele>
        <time>2017-09-02T08:50:05Z</time>
      </trkpt>
      <trkpt lat="42.7124" lon="1.43405">
        <ele>1152.41</ele>
        <time>2017-09-02T08:50:33Z</time>
      </trkpt>
      <trkpt lat="42.71226" lon="1.43386">
        <ele>1162.02</ele>
        <time>2017-09-02T08:50:51Z</time>
      </trkpt>
      <trkpt lat="42.71218" lon="1.43364">
        <ele>1160.51</ele>
        <time>2017-09-02T08:51:22Z</time>
      </trkpt>
      <trkpt lat="42.71204" lon="1.43348">
        <ele>1160.47</ele>
        <time>2017-09-02T08:51:40Z</time>
      </trkpt>
      <trkpt lat="42.71185" lon="1.43337">
        <ele>1162.32</ele>
        <time>2017-09-02T08:52:21Z</time>
      </trkpt>
      <trkpt lat="42.71167" lon="1.43331">
        <ele>1170.11</ele>
        <time>2017-09-02T08:52:37Z</time>
      </trkpt>
      <trkpt lat="42.71154" lon="1.43314">
        <ele>1176.09</ele>
        <time>2017-09-02T08:53:24Z</time>
      </trkpt>
      <trkpt lat="42.71141" lon="1.43296">
        <ele>1176.3</ele>
        <time>2017-09-02T08:53:39Z</time>
      </trkpt>
      <trkpt lat="42.71128" lon="1.43279">
        <ele>1181.48</ele>
        <time>2017-09-02T08:54:07Z</time>
      </trkpt>
      <trkpt lat="42.71112" lon="1.43267">
        <ele>1193.12</ele>
        <time>2017-09-02T08:55:07Z</time>
      </trkpt>
      <trkpt lat="42.71097" lon="1.43254">
        <ele>1195.18</ele>
        <time>2017-09-02T08:55:29Z</time>
      </trkpt>
      <trkpt lat="42.71078" lon="1.43246">
        <ele>1200.52</ele>
        <time>2017-09-02T08:58:14Z</time>
      </trkpt>
      <trkpt lat="42.7106" lon="1.43247">
        <ele>1202.92</ele>
        <time>2017-09-02T08:58:34Z</time>
      </trkpt>
      <trkpt lat="42.71043" lon="1.43238">
        <ele>1205.33</ele>
        <time>2017-09-02T08:58:58Z</time>
      </trkpt>
      <trkpt lat="42.7103" lon="1.4322">
        <ele>1211.25</ele>
        <time>2017-09-02T09:00:00Z</time>
      </trkpt>
      <trkpt lat="42.71016" lon="1.43203">
        <ele>1214.88</ele>
        <time>2017-09-02T09:00:22Z</time>
      </trkpt>
      <trkpt lat="42.71004" lon="1.43184">
        <ele>1224.9</ele>
        <time>2017-09-02T09:00:40Z</time>
      </trkpt>
      <trkpt lat="42.70992" lon="1.43165">
        <ele>1227.91</ele>
        <time>2017-09-02T09:02:02Z</time>
      </trkpt>
      <trkpt lat="42.70974" lon="1.4316">
        <ele>1231.47</ele>
        <time>2017-09-02T09:02:13Z</time>
      </trkpt>
      <trkpt lat="42.70958" lon="1.43146">
        <ele>1242.21</ele>
        <time>2017-09-02T09:02:53Z</time>
      </trkpt>
      <trkpt lat="42.70952" lon="1.43122">
        <ele>1245.23</ele>
        <time>2017-09-02T09:03:24Z</time>
      </trkpt>
      <trkpt lat="42.70946" lon="1.43098">
        <ele>1245.26</ele>
        <time>2017-09-02T09:03:45Z</time>
      </trkpt>
      <trkpt lat="42.70935" lon="1.43078">
        <ele>1246.21</ele>
        <time>2017-09-02T09:04:06Z</time>
      </trkpt>
      <trkpt lat="42.70932" lon="1.43054">
        <ele>1253.32</ele>
        <time>2017-09-02T09:04:37Z</time>
      </trkpt>
      <trkpt lat="42.70918" lon="1.43036">
        <ele>1254.84</ele>
        <time>2017-09-02T09:04:58Z</time>
      </trkpt>
      <trkpt lat="42.70902" lon="1.43018">
        <ele>1256.48</ele>
        <time>2017-09-02T09:05:21Z</time>
      </trkpt>
      <trkpt lat="42.70907" lon="1.43043">
        <ele>1266.22</ele>
        <time>2017-09-02T09:06:38Z</time>
      </trkpt>
      <trkpt lat="42.70904" lon="1.43067">
        <ele>1266.18</ele>
        <time>2017-09-02T09:06:57Z</time>
      </trkpt>
      <trkpt lat="42.70888" lon="1.43053">
        <ele>1270.18</ele>
        <time>2017-09-02T09:07:41Z</time>
      </trkpt>
      <trkpt lat="42.70872" lon="1.4304">
        <ele>1277.27</ele>
        <time>2017-09-02T09:08:52Z</time>
      </trkpt>
      <trkpt lat="42.70857" lon="1.43025">
        <ele>1278.78</ele>
        <time>2017-09-02T09:09:13Z</time>
      </trkpt>
      <trkpt lat="42.70843" lon="1.43011">
        <ele>1285.9</ele>
        <time>2017-09-02T09:09:58Z</time>
      </trkpt>
      <trkpt lat="42.70838" lon="1.42985">
        <ele>1296.46</ele>
        <time>2017-09-02T09:10:46Z</time>
      </trkpt>
      <trkpt lat="42.70823" lon="1.42973">
        <ele>1292.2</ele>
        <time>2017-09-02T09:11:02Z</time>
      </trkpt>
      <trkpt lat="42.70815" lon="1.4295">
        <ele>1305.29</ele>
        <time>2017-09-02T09:11:43Z</time>
      </trkpt>
      <trkpt lat="42.708" lon="1.42936">
        <ele>1314.2</ele>
        <time>2017-09-02T09:12:32Z</time>
      </trkpt>
      <trkpt lat="42.70788" lon="1.42917">
        <ele>1317.82</ele>
        <time>2017-09-02T09:13:10Z</time>
      </trkpt>
      <trkpt lat="42.70782" lon="1.42893">
        <ele>1324.11</ele>
        <time>2017-09-02T09:13:43Z</time>
      </trkpt>
      <trkpt lat="42.70769" lon="1.42876">
        <ele>1323.51</ele>
        <time>2017-09-02T09:14:08Z</time>
      </trkpt>
      <trkpt lat="42.70762" lon="1.42853">
        <ele>1331.09</ele>
        <time>2017-09-02T09:15:01Z</time>
      </trkpt>
      <trkpt lat="42.70758" lon="1.42829">
        <ele>1341.9</ele>
        <time>2017-09-02T09:16:05Z</time>
      </trkpt>
      <trkpt lat="42.7074" lon="1.42823">
        <ele>1355.14</ele>
        <time>2017-09-02T09:17:22Z</time>
      </trkpt>
      <trkpt lat="42.70721" lon="1.42825">
        <ele>1357.19</ele>
        <time>2017-09-02T09:18:12Z</time>
      </trkpt>
      <trkpt lat="42.70723" lon="1.428">
        <ele>1363</ele>
        <time>2017-09-02T09:18:44Z</time>
      </trkpt>
      <trkpt lat="42.70725" lon="1.42775">
        <ele>1365.12</ele>
        <time>2017-09-02T09:19:12Z</time>
      </trkpt>
      <trkpt lat="42.70713" lon="1.42756">
        <ele>1372.99</ele>
        <time>2017-09-02T09:19:38Z</time>
      </trkpt>
      <trkpt lat="42.70711" lon="1.42731">
        <ele>1382.27</ele>
        <time>2017-09-02T09:21:10Z</time>
      </trkpt>
      <trkpt lat="42.70701" lon="1.4271">
        <ele>1383.18</ele>
        <time>2017-09-02T09:21:43Z</time>
      </trkpt>
      <trkpt lat="42.70687" lon="1.42695">
        <ele>1393.63</ele>
        <time>2017-09-02T09:22:23Z</time>
      </trkpt>
      <trkpt lat="42.70673" lon="1.4268">
        <ele>1399.21</ele>
        <time>2017-09-02T09:22:55Z</time>
      </trkpt>
      <trkpt lat="42.70658" lon="1.42661">
        <ele>1403.79</ele>
        <time>2017-09-02T09:24:04Z</time>
      </trkpt>
      <trkpt lat="42.70642" lon="1.4265">
        <ele>1406.32</ele>
        <time>2017-09-02T09:24:20Z</time>
      </trkpt>
      <trkpt lat="42.70625" lon="1.42639">
        <ele>1409.81</ele>
        <time>2017-09-02T09:24:43Z</time>
      </trkpt>
      <trkpt lat="42.70611" lon="1.42622">
        <ele>1425.51</ele>
        <time>2017-09-02T09:25:59Z</time>
      </trkpt>
      <trkpt lat="42.70591" lon="1.4262">
        <ele>1432.02</ele>
        <time>2017-09-02T09:26:32Z</time>
      </trkpt>
      <trkpt lat="42.70578" lon="1.42602">
        <ele>1431.62</ele>
        <time>2017-09-02T09:26:55Z</time>
      </trkpt>
      <trkpt lat="42.70561" lon="1.4259">
        <ele>1431.49</ele>
        <time>2017-09-02T09:27:17Z</time>
      </trkpt>
      <trkpt lat="42.70549" lon="1.42572">
        <ele>1443.11</ele>
        <time>2017-09-02T09:27:46Z</time>
      </trkpt>
      <trkpt lat="42.70537" lon="1.4255">
        <ele>1441.74</ele>
        <time>2017-09-02T09:28:12Z</time>
      </trkpt>
      <trkpt lat="42.70519" lon="1.42541">
        <ele>1445.14</ele>
        <time>2017-09-02T09:29:19Z</time>
      </trkpt>
      <trkpt lat="42.70501" lon="1.42536">
        <ele>1449.96</ele>
        <time>2017-09-02T09:29:36Z</time>
      </trkpt>
      <trkpt lat="42.70485" lon="1.42525">
        <ele>1460.09</ele>
        <time>2017-09-02T09:30:26Z</time>
      </trkpt>
      <trkpt lat="42.70469" lon="1.42512">
        <ele>1471.91</ele>
        <time>2017-09-02T09:31:19Z</time>
      </trkpt>
      <trkpt lat="42.7045" lon="1.42503">
        <ele>1472.62</ele>
        <time>2017-09-02T09:31:30Z</time>
      </trkpt>
      <trkpt lat="42.70432" lon="1.4249">
        <ele>1471.88</ele>
        <time>2017-09-02T09:32:19Z</time>
      </trkpt>
      <trkpt lat="42.70413" lon="1.42481">
        <ele>1478.53</ele>
        <time>2017-09-02T09:32:40Z</time>
      </trkpt>
      <trkpt lat="42.70398" lon="1.42466">
        <ele>1477.6</ele>
        <time>2017-09-02T09:33:17Z</time>
      </trkpt>
      <trkpt lat="42.70381" lon="1.42458">
        <ele>1479.12</ele>
        <time>2017-09-02T09:33:45Z</time>
      </trkpt>
      <trkpt lat="42.70364" lon="1.42448">
        <ele>1487.92</ele>
        <time>2017-09-02T09:34:26Z</time>
      </trkpt>
      <trkpt lat="42.70346" lon="1.42444">
        <ele>1489.6</ele>
        <time>2017-09-02T09:35:04Z</time>
      </trkpt>
      <trkpt lat="42.70329" lon="1.42434">
        <ele>1494.18</ele>
        <time>2017-09-02T09:35:27Z</time>
      </trkpt>
      <trkpt lat="42.70313" lon="1.42421">
        <ele>1495.18</ele>
        <time>2017-09-02T09:35:57Z</time>
      </trkpt>
      <trkpt lat="42.70301" lon="1.424">
        <ele>1498.99</ele>
        <time>2017-09-02T09:39:24Z</time>
      </trkpt>
      <trkpt lat="42.70284" lon="1.42389">
        <ele>1503.9</ele>
        <time>2017-09-02T09:39:35Z</time>
      </trkpt>
      <trkpt lat="42.70268" lon="1.42377">
        <ele>1501.12</ele>
        <time>2017-09-02T09:39:49Z</time>
      </trkpt>
      <trkpt lat="42.70252" lon="1.42367">
        <ele>1502.38</ele>
        <time>2017-09-02T09:40:02Z</time>
      </trkpt>
      <trkpt lat="42.70238" lon="1.4235">
        <ele>1501.82</ele>
        <time>2017-09-02T09:40:43Z</time>
      </trkpt>
      <trkpt lat="42.70237" lon="1.42376">
        <ele>1511.32</ele>
        <time>2017-09-02T09:42:54Z</time>
      </trkpt>
      <trkpt lat="42.70221" lon="1.42387">
        <ele>1511.72</ele>
        <time>2017-09-02T09:44:13Z</time>
      </trkpt>
      <trkpt lat="42.7022" lon="1.42412">
        <ele>1523.21</ele>
        <time>2017-09-02T09:45:47Z</time>
      </trkpt>
      <trkpt lat="42.70205" lon="1.42426">
        <ele>1532.11</ele>
        <time>2017-09-02T09:46:54Z</time>
      </trkpt>
      <trkpt lat="42.70187" lon="1.42434">
        <ele>1541.91</ele>
        <time>2017-09-02T09:47:49Z</time>
      </trkpt>
      <trkpt lat="42.7017" lon="1.42431">
        <ele>1543.88</ele>
        <time>2017-09-02T09:48:23Z</time>
      </trkpt>
      <trkpt lat="42.70152" lon="1.42431">
        <ele>1548.18</ele>
        <time>2017-09-02T09:49:03Z</time>
      </trkpt>
      <trkpt lat="42.70133" lon="1.42432">
        <ele>1550.21</ele>
        <time>2017-09-02T09:49:36Z</time>
      </trkpt>
      <trkpt lat="42.70116" lon="1.42438">
        <ele>1551.97</ele>
        <time>2017-09-02T09:50:23Z</time>
      </trkpt>
      <trkpt lat="42.70098" lon="1.42443">
        <ele>1563.21</ele>
        <time>2017-09-02T09:51:02Z</time>
      </trkpt>
      <trkpt lat="42.7008" lon="1.4245">
        <ele>1565.99</ele>
        <time>2017-09-02T09:51:55Z</time>
      </trkpt>
      <trkpt lat="42.70062" lon="1.42444">
        <ele>1571.21</ele>
        <time>2017-09-02T09:53:27Z</time>
      </trkpt>
      <trkpt lat="42.70045" lon="1.42434">
        <ele>1579.55</ele>
        <time>2017-09-02T09:54:26Z</time>
      </trkpt>
      <trkpt lat="42.70031" lon="1.4245">
        <ele>1582.52</ele>
        <time>2017-09-02T10:07:56Z</time>
      </trkpt>
      <trkpt lat="42.70014" lon="1.4244">
        <ele>1588.91</ele>
        <time>2017-09-02T10:08:30Z</time>
      </trkpt>
      <trkpt lat="42.69998" lon="1.42429">
        <ele>1593.21</ele>
        <time>2017-09-02T10:08:56Z</time>
      </trkpt>
      <trkpt lat="42.69981" lon="1.4242">
        <ele>1594.21</ele>
        <time>2017-09-02T10:09:23Z</time>
      </trkpt>
      <trkpt lat="42.69964" lon="1.42409">
        <ele>1599.09</ele>
        <time>2017-09-02T10:09:54Z</time>
      </trkpt>
      <trkpt lat="42.69946" lon="1.42408">
        <ele>1599.51</ele>
        <time>2017-09-02T10:10:27Z</time>
      </trkpt>
      <trkpt lat="42.69929" lon="1.42418">
        <ele>1607.81</ele>
        <time>2017-09-02T10:11:50Z</time>
      </trkpt>
      <trkpt lat="42.6991" lon="1.42415">
        <ele>1612.21</ele>
        <time>2017-09-02T10:12:18Z</time>
      </trkpt>
      <trkpt lat="42.69892" lon="1.42412">
        <ele>1613.42</ele>
        <time>2017-09-02T10:12:45Z</time>
      </trkpt>
      <trkpt lat="42.69874" lon="1.42414">
        <ele>1623.21</ele>
        <time>2017-09-02T10:13:27Z</time>
      </trkpt>
      <trkpt lat="42.69856" lon="1.42408">
        <ele>1625.6</ele>
        <time>2017-09-02T10:14:03Z</time>
      </trkpt>
      <trkpt lat="42.69838" lon="1.42401">
        <ele>1635.21</ele>
        <time>2017-09-02T10:14:53Z</time>
      </trkpt>
      <trkpt lat="42.6982" lon="1.42401">
        <ele>1645.12</ele>
        <time>2017-09-02T10:15:41Z</time>
      </trkpt>
      <trkpt lat="42.69802" lon="1.424">
        <ele>1650.19</ele>
        <time>2017-09-02T10:16:20Z</time>
      </trkpt>
      <trkpt lat="42.69783" lon="1.42399">
        <ele>1654.27</ele>
        <time>2017-09-02T10:16:56Z</time>
      </trkpt>
      <trkpt lat="42.69766" lon="1.42405">
        <ele>1669.92</ele>
        <time>2017-09-02T10:18:16Z</time>
      </trkpt>
      <trkpt lat="42.69747" lon="1.42404">
        <ele>1677.47</ele>
        <time>2017-09-02T10:18:53Z</time>
      </trkpt>
      <trkpt lat="42.6973" lon="1.42392">
        <ele>1676.91</ele>
        <time>2017-09-02T10:19:36Z</time>
      </trkpt>
      <trkpt lat="42.69712" lon="1.42393">
        <ele>1673.31</ele>
        <time>2017-09-02T10:20:00Z</time>
      </trkpt>
      <trkpt lat="42.69699" lon="1.42376">
        <ele>1690.18</ele>
        <time>2017-09-02T10:20:42Z</time>
      </trkpt>
      <trkpt lat="42.69691" lon="1.42353">
        <ele>1689.92</ele>
        <time>2017-09-02T10:21:06Z</time>
      </trkpt>
      <trkpt lat="42.69689" lon="1.42327">
        <ele>1694.3</ele>
        <time>2017-09-02T10:23:45Z</time>
      </trkpt>
      <trkpt lat="42.69697" lon="1.42305">
        <ele>1690.06</ele>
        <time>2017-09-02T10:24:05Z</time>
      </trkpt>
      <trkpt lat="42.69706" lon="1.42284">
        <ele>1693.09</ele>
        <time>2017-09-02T10:24:42Z</time>
      </trkpt>
      <trkpt lat="42.69691" lon="1.42271">
        <ele>1698.3</ele>
        <time>2017-09-02T10:25:27Z</time>
      </trkpt>
      <trkpt lat="42.69673" lon="1.42274">
        <ele>1713.8</ele>
        <time>2017-09-02T10:26:11Z</time>
      </trkpt>
      <trkpt lat="42.69655" lon="1.42277">
        <ele>1714.21</ele>
        <time>2017-09-02T10:26:48Z</time>
      </trkpt>
      <trkpt lat="42.69638" lon="1.42269">
        <ele>1718.9</ele>
        <time>2017-09-02T10:27:12Z</time>
      </trkpt>
      <trkpt lat="42.69621" lon="1.42279">
        <ele>1721.52</ele>
        <time>2017-09-02T10:27:56Z</time>
      </trkpt>
      <trkpt lat="42.69603" lon="1.42285">
        <ele>1731.2</ele>
        <time>2017-09-02T10:28:42Z</time>
      </trkpt>
      <trkpt lat="42.69589" lon="1.42301">
        <ele>1730.69</ele>
        <time>2017-09-02T10:29:19Z</time>
      </trkpt>
      <trkpt lat="42.69573" lon="1.42313">
        <ele>1740.42</ele>
        <time>2017-09-02T10:29:55Z</time>
      </trkpt>
      <trkpt lat="42.69555" lon="1.42318">
        <ele>1741.91</ele>
        <time>2017-09-02T10:30:38Z</time>
      </trkpt>
      <trkpt lat="42.69537" lon="1.42312">
        <ele>1742.45</ele>
        <time>2017-09-02T10:31:02Z</time>
      </trkpt>
      <trkpt lat="42.69519" lon="1.4231">
        <ele>1749.04</ele>
        <time>2017-09-02T10:31:34Z</time>
      </trkpt>
      <trkpt lat="42.69501" lon="1.42315">
        <ele>1753.22</ele>
        <time>2017-09-02T10:32:09Z</time>
      </trkpt>
      <trkpt lat="42.69483" lon="1.4232">
        <ele>1759.18</ele>
        <time>2017-09-02T10:32:36Z</time>
      </trkpt>
      <trkpt lat="42.69464" lon="1.42322">
        <ele>1758.05</ele>
        <time>2017-09-02T10:33:04Z</time>
      </trkpt>
      <trkpt lat="42.69447" lon="1.4233">
        <ele>1764.49</ele>
        <time>2017-09-02T10:34:28Z</time>
      </trkpt>
      <trkpt lat="42.69429" lon="1.42336">
        <ele>1766.2</ele>
        <time>2017-09-02T10:34:58Z</time>
      </trkpt>
      <trkpt lat="42.69412" lon="1.42341">
        <ele>1764.69</ele>
        <time>2017-09-02T10:35:26Z</time>
      </trkpt>
      <trkpt lat="42.69395" lon="1.42333">
        <ele>1764.2</ele>
        <time>2017-09-02T10:35:51Z</time>
      </trkpt>
      <trkpt lat="42.69375" lon="1.42331">
        <ele>1768.58</ele>
        <time>2017-09-02T10:36:16Z</time>
      </trkpt>
      <trkpt lat="42.69358" lon="1.42338">
        <ele>1773.2</ele>
        <time>2017-09-02T10:36:41Z</time>
      </trkpt>
      <trkpt lat="42.6934" lon="1.42341">
        <ele>1780.91</ele>
        <time>2017-09-02T10:37:58Z</time>
      </trkpt>
      <trkpt lat="42.69322" lon="1.42335">
        <ele>1783.49</ele>
        <time>2017-09-02T10:38:26Z</time>
      </trkpt>
      <trkpt lat="42.69304" lon="1.42338">
        <ele>1793.02</ele>
        <time>2017-09-02T10:38:55Z</time>
      </trkpt>
      <trkpt lat="42.69286" lon="1.42336">
        <ele>1800.9</ele>
        <time>2017-09-02T10:39:47Z</time>
      </trkpt>
      <trkpt lat="42.69268" lon="1.42332">
        <ele>1808.21</ele>
        <time>2017-09-02T10:40:19Z</time>
      </trkpt>
      <trkpt lat="42.6925" lon="1.42327">
        <ele>1815.27</ele>
        <time>2017-09-02T10:40:54Z</time>
      </trkpt>
      <trkpt lat="42.69231" lon="1.42327">
        <ele>1818.82</ele>
        <time>2017-09-02T10:41:22Z</time>
      </trkpt>
      <trkpt lat="42.69213" lon="1.42327">
        <ele>1816.32</ele>
        <time>2017-09-02T10:42:01Z</time>
      </trkpt>
      <trkpt lat="42.69196" lon="1.42318">
        <ele>1811.25</ele>
        <time>2017-09-02T10:42:25Z</time>
      </trkpt>
      <trkpt lat="42.69178" lon="1.42325">
        <ele>1827.64</ele>
        <time>2017-09-02T10:43:09Z</time>
      </trkpt>
      <trkpt lat="42.69159" lon="1.42324">
        <ele>1819.52</ele>
        <time>2017-09-02T10:43:37Z</time>
      </trkpt>
      <trkpt lat="42.69142" lon="1.42315">
        <ele>1825.18</ele>
        <time>2017-09-02T10:44:02Z</time>
      </trkpt>
      <trkpt lat="42.69124" lon="1.42316">
        <ele>1829.62</ele>
        <time>2017-09-02T10:44:31Z</time>
      </trkpt>
      <trkpt lat="42.69105" lon="1.42316">
        <ele>1842.93</ele>
        <time>2017-09-02T10:46:16Z</time>
      </trkpt>
      <trkpt lat="42.69089" lon="1.42325">
        <ele>1835.42</ele>
        <time>2017-09-02T10:47:10Z</time>
      </trkpt>
      <trkpt lat="42.6908" lon="1.42347">
        <ele>1840.22</ele>
        <time>2017-09-02T10:50:04Z</time>
      </trkpt>
      <trkpt lat="42.69068" lon="1.42329">
        <ele>1848.91</ele>
        <time>2017-09-02T11:35:51Z</time>
      </trkpt>
      <trkpt lat="42.69053" lon="1.42315">
        <ele>1854.14</ele>
        <time>2017-09-02T11:36:28Z</time>
      </trkpt>
      <trkpt lat="42.69036" lon="1.42305">
        <ele>1856.03</ele>
        <time>2017-09-02T11:36:58Z</time>
      </trkpt>
      <trkpt lat="42.69018" lon="1.42304">
        <ele>1863.21</ele>
        <time>2017-09-02T11:37:24Z</time>
      </trkpt>
      <trkpt lat="42.68999" lon="1.42307">
        <ele>1871.38</ele>
        <time>2017-09-02T11:38:33Z</time>
      </trkpt>
      <trkpt lat="42.68981" lon="1.42304">
        <ele>1868.7</ele>
        <time>2017-09-02T11:38:57Z</time>
      </trkpt>
      <trkpt lat="42.68965" lon="1.42293">
        <ele>1869.82</ele>
        <time>2017-09-02T11:39:19Z</time>
      </trkpt>
      <trkpt lat="42.68947" lon="1.42287">
        <ele>1875.91</ele>
        <time>2017-09-02T11:39:39Z</time>
      </trkpt>
      <trkpt lat="42.6893" lon="1.42279">
        <ele>1876.17</ele>
        <time>2017-09-02T11:39:56Z</time>
      </trkpt>
      <trkpt lat="42.68912" lon="1.42271">
        <ele>1875.06</ele>
        <time>2017-09-02T11:40:15Z</time>
      </trkpt>
      <trkpt lat="42.68896" lon="1.42257">
        <ele>1869.3</ele>
        <time>2017-09-02T11:40:41Z</time>
      </trkpt>
      <trkpt lat="42.68879" lon="1.42248">
        <ele>1878.21</ele>
        <time>2017-09-02T11:41:09Z</time>
      </trkpt>
      <trkpt lat="42.6886" lon="1.42245">
        <ele>1881.2</ele>
        <time>2017-09-02T11:41:38Z</time>
      </trkpt>
      <trkpt lat="42.68843" lon="1.42239">
        <ele>1884.19</ele>
        <time>2017-09-02T11:42:08Z</time>
      </trkpt>
      <trkpt lat="42.68827" lon="1.42226">
        <ele>1890.26</ele>
        <time>2017-09-02T11:42:47Z</time>
      </trkpt>
      <trkpt lat="42.68809" lon="1.42217">
        <ele>1897.1</ele>
        <time>2017-09-02T11:43:29Z</time>
      </trkpt>
      <trkpt lat="42.68792" lon="1.42211">
        <ele>1907.26</ele>
        <time>2017-09-02T11:44:21Z</time>
      </trkpt>
      <trkpt lat="42.68774" lon="1.42205">
        <ele>1909.58</ele>
        <time>2017-09-02T11:44:55Z</time>
      </trkpt>
      <trkpt lat="42.68758" lon="1.42217">
        <ele>1915.09</ele>
        <time>2017-09-02T11:45:23Z</time>
      </trkpt>
      <trkpt lat="42.68739" lon="1.42215">
        <ele>1914.91</ele>
        <time>2017-09-02T11:45:48Z</time>
      </trkpt>
      <trkpt lat="42.6872" lon="1.42207">
        <ele>1918.18</ele>
        <time>2017-09-02T11:46:22Z</time>
      </trkpt>
      <trkpt lat="42.68702" lon="1.42203">
        <ele>1918.21</ele>
        <time>2017-09-02T11:46:56Z</time>
      </trkpt>
      <trkpt lat="42.68684" lon="1.42197">
        <ele>1931.2</ele>
        <time>2017-09-02T11:47:36Z</time>
      </trkpt>
      <trkpt lat="42.68666" lon="1.42198">
        <ele>1928.6</ele>
        <time>2017-09-02T11:48:21Z</time>
      </trkpt>
      <trkpt lat="42.68648" lon="1.42202">
        <ele>1935.23</ele>
        <time>2017-09-02T11:49:01Z</time>
      </trkpt>
      <trkpt lat="42.68631" lon="1.42209">
        <ele>1936</ele>
        <time>2017-09-02T11:49:26Z</time>
      </trkpt>
      <trkpt lat="42.68612" lon="1.42214">
        <ele>1942.2</ele>
        <time>2017-09-02T11:49:53Z</time>
      </trkpt>
      <trkpt lat="42.68594" lon="1.42216">
        <ele>1946.14</ele>
        <time>2017-09-02T11:50:14Z</time>
      </trkpt>
      <trkpt lat="42.68576" lon="1.42215">
        <ele>1943.21</ele>
        <time>2017-09-02T11:50:37Z</time>
      </trkpt>
      <trkpt lat="42.68559" lon="1.42221">
        <ele>1942.54</ele>
        <time>2017-09-02T11:51:01Z</time>
      </trkpt>
      <trkpt lat="42.68541" lon="1.42216">
        <ele>1948.9</ele>
        <time>2017-09-02T11:51:58Z</time>
      </trkpt>
      <trkpt lat="42.68523" lon="1.42211">
        <ele>1942.54</ele>
        <time>2017-09-02T11:52:21Z</time>
      </trkpt>
      <trkpt lat="42.68505" lon="1.42206">
        <ele>1940</ele>
        <time>2017-09-02T11:52:40Z</time>
      </trkpt>
      <trkpt lat="42.68486" lon="1.42204">
        <ele>1947.76</ele>
        <time>2017-09-02T11:53:05Z</time>
      </trkpt>
      <trkpt lat="42.68468" lon="1.42197">
        <ele>1955.5</ele>
        <time>2017-09-02T11:53:33Z</time>
      </trkpt>
      <trkpt lat="42.6845" lon="1.42198">
        <ele>1959.99</ele>
        <time>2017-09-02T11:53:56Z</time>
      </trkpt>
      <trkpt lat="42.68444" lon="1.42175">
        <ele>1965.51</ele>
        <time>2017-09-02T11:57:29Z</time>
      </trkpt>
      <trkpt lat="42.68442" lon="1.42149">
        <ele>1967.48</ele>
        <time>2017-09-02T11:58:16Z</time>
      </trkpt>
      <trkpt lat="42.68443" lon="1.42125">
        <ele>1972.57</ele>
        <time>2017-09-02T11:58:58Z</time>
      </trkpt>
      <trkpt lat="42.68429" lon="1.42109">
        <ele>1982.91</ele>
        <time>2017-09-02T11:59:47Z</time>
      </trkpt>
      <trkpt lat="42.68427" lon="1.42083">
        <ele>1980.5</ele>
        <time>2017-09-02T12:00:33Z</time>
      </trkpt>
      <trkpt lat="42.68423" lon="1.4206">
        <ele>1995.26</ele>
        <time>2017-09-02T12:01:56Z</time>
      </trkpt>
      <trkpt lat="42.68413" lon="1.42038">
        <ele>2001.82</ele>
        <time>2017-09-02T12:03:05Z</time>
      </trkpt>
      <trkpt lat="42.68398" lon="1.42025">
        <ele>2008.27</ele>
        <time>2017-09-02T12:03:57Z</time>
      </trkpt>
      <trkpt lat="42.68384" lon="1.42009">
        <ele>2015.3</ele>
        <time>2017-09-02T12:04:51Z</time>
      </trkpt>
      <trkpt lat="42.68368" lon="1.41996">
        <ele>2024.09</ele>
        <time>2017-09-02T12:05:47Z</time>
      </trkpt>
      <trkpt lat="42.68351" lon="1.41986">
        <ele>2035.16</ele>
        <time>2017-09-02T12:06:27Z</time>
      </trkpt>
      <trkpt lat="42.68333" lon="1.41977">
        <ele>2033.9</ele>
        <time>2017-09-02T12:07:01Z</time>
      </trkpt>
      <trkpt lat="42.68327" lon="1.41954">
        <ele>2045.01</ele>
        <time>2017-09-02T12:08:12Z</time>
      </trkpt>
      <trkpt lat="42.68322" lon="1.4193">
        <ele>2066.91</ele>
        <time>2017-09-02T12:09:56Z</time>
      </trkpt>
      <trkpt lat="42.68329" lon="1.41907">
        <ele>2063.88</ele>
        <time>2017-09-02T12:11:05Z</time>
      </trkpt>
      <trkpt lat="42.68316" lon="1.41888">
        <ele>2076.18</ele>
        <time>2017-09-02T12:12:33Z</time>
      </trkpt>
      <trkpt lat="42.68297" lon="1.41879">
        <ele>2090.82</ele>
        <time>2017-09-02T12:14:42Z</time>
      </trkpt>
      <trkpt lat="42.6828" lon="1.41872">
        <ele>2094.23</ele>
        <time>2017-09-02T12:16:06Z</time>
      </trkpt>
      <trkpt lat="42.68261" lon="1.41872">
        <ele>2114.82</ele>
        <time>2017-09-02T12:17:47Z</time>
      </trkpt>
      <trkpt lat="42.68243" lon="1.41866">
        <ele>2123.81</ele>
        <time>2017-09-02T12:18:59Z</time>
      </trkpt>
      <trkpt lat="42.68225" lon="1.41864">
        <ele>2143.33</ele>
        <time>2017-09-02T12:20:48Z</time>
      </trkpt>
      <trkpt lat="42.68209" lon="1.41853">
        <ele>2146.42</ele>
        <time>2017-09-02T12:21:54Z</time>
      </trkpt>
      <trkpt lat="42.68191" lon="1.41847">
        <ele>2153.82</ele>
        <time>2017-09-02T12:23:07Z</time>
      </trkpt>
      <trkpt lat="42.68173" lon="1.41849">
        <ele>2164.03</ele>
        <time>2017-09-02T12:24:03Z</time>
      </trkpt>
      <trkpt lat="42.68156" lon="1.41841">
        <ele>2165.32</ele>
        <time>2017-09-02T12:24:34Z</time>
      </trkpt>
      <trkpt lat="42.68138" lon="1.41831">
        <ele>2179.73</ele>
        <time>2017-09-02T12:26:06Z</time>
      </trkpt>
      <trkpt lat="42.68122" lon="1.41818">
        <ele>2187.24</ele>
        <time>2017-09-02T12:27:07Z</time>
      </trkpt>
      <trkpt lat="42.6811" lon="1.41799">
        <ele>2197.48</ele>
        <time>2017-09-02T12:28:39Z</time>
      </trkpt>
      <trkpt lat="42.68095" lon="1.41784">
        <ele>2209.42</ele>
        <time>2017-09-02T12:30:08Z</time>
      </trkpt>
      <trkpt lat="42.6808" lon="1.4177">
        <ele>2219.3</ele>
        <time>2017-09-02T12:32:14Z</time>
      </trkpt>
      <trkpt lat="42.68064" lon="1.41757">
        <ele>2223.27</ele>
        <time>2017-09-02T12:33:04Z</time>
      </trkpt>
      <trkpt lat="42.68046" lon="1.41755">
        <ele>2227.48</ele>
        <time>2017-09-02T12:33:42Z</time>
      </trkpt>
      <trkpt lat="42.68029" lon="1.41762">
        <ele>2232.09</ele>
        <time>2017-09-02T12:34:42Z</time>
      </trkpt>
      <trkpt lat="42.6801" lon="1.41767">
        <ele>2240.89</ele>
        <time>2017-09-02T12:35:40Z</time>
      </trkpt>
      <trkpt lat="42.67992" lon="1.41772">
        <ele>2249.43</ele>
        <time>2017-09-02T12:36:58Z</time>
      </trkpt>
      <trkpt lat="42.67974" lon="1.41769">
        <ele>2252.5</ele>
        <time>2017-09-02T12:37:40Z</time>
      </trkpt>
      <trkpt lat="42.67956" lon="1.41771">
        <ele>2264.2</ele>
        <time>2017-09-02T12:39:06Z</time>
      </trkpt>
      <trkpt lat="42.67941" lon="1.41757">
        <ele>2290.43</ele>
        <time>2017-09-02T12:42:44Z</time>
      </trkpt>
      <trkpt lat="42.67924" lon="1.41767">
        <ele>2302.9</ele>
        <time>2017-09-02T12:44:11Z</time>
      </trkpt>
      <trkpt lat="42.67908" lon="1.41756">
        <ele>2323.21</ele>
        <time>2017-09-02T12:46:29Z</time>
      </trkpt>
      <trkpt lat="42.67892" lon="1.41744">
        <ele>2348.12</ele>
        <time>2017-09-02T12:50:55Z</time>
      </trkpt>
      <trkpt lat="42.67884" lon="1.41722">
        <ele>2360.97</ele>
        <time>2017-09-02T12:59:30Z</time>
      </trkpt>
      <trkpt lat="42.67871" lon="1.41704">
        <ele>2366.89</ele>
        <time>2017-09-02T13:00:42Z</time>
      </trkpt>
      <trkpt lat="42.67866" lon="1.4168">
        <ele>2374.21</ele>
        <time>2017-09-02T13:01:51Z</time>
      </trkpt>
      <trkpt lat="42.67853" lon="1.41662">
        <ele>2389.11</ele>
        <time>2017-09-02T13:03:43Z</time>
      </trkpt>
      <trkpt lat="42.67853" lon="1.41637">
        <ele>2395.21</ele>
        <time>2017-09-02T13:04:38Z</time>
      </trkpt>
      <trkpt lat="42.67857" lon="1.41613">
        <ele>2404.72</ele>
        <time>2017-09-02T13:06:14Z</time>
      </trkpt>
      <trkpt lat="42.67858" lon="1.41589">
        <ele>2419.84</ele>
        <time>2017-09-02T13:08:07Z</time>
      </trkpt>
      <trkpt lat="42.67871" lon="1.41573">
        <ele>2437.02</ele>
        <time>2017-09-02T13:09:56Z</time>
      </trkpt>
      <trkpt lat="42.67889" lon="1.41565">
        <ele>2443.82</ele>
        <time>2017-09-02T13:11:06Z</time>
      </trkpt>
      <trkpt lat="42.67904" lon="1.41548">
        <ele>2453.6</ele>
        <time>2017-09-02T13:12:22Z</time>
      </trkpt>
      <trkpt lat="42.67916" lon="1.4153">
        <ele>2452.91</ele>
        <time>2017-09-02T13:12:44Z</time>
      </trkpt>
      <trkpt lat="42.67933" lon="1.4152">
        <ele>2462.9</ele>
        <time>2017-09-02T13:13:19Z</time>
      </trkpt>
      <trkpt lat="42.67942" lon="1.41498">
        <ele>2462.51</ele>
        <time>2017-09-02T13:16:04Z</time>
      </trkpt>
      <trkpt lat="42.67935" lon="1.41475">
        <ele>2466.2</ele>
        <time>2017-09-02T13:17:11Z</time>
      </trkpt>
      <trkpt lat="42.67917" lon="1.41479">
        <ele>2497.12</ele>
        <time>2017-09-02T13:19:08Z</time>
      </trkpt>
      <trkpt lat="42.67899" lon="1.41479">
        <ele>2498.22</ele>
        <time>2017-09-02T13:20:43Z</time>
      </trkpt>
      <trkpt lat="42.67887" lon="1.41498">
        <ele>2499.17</ele>
        <time>2017-09-02T13:24:38Z</time>
      </trkpt>
      <trkpt lat="42.67868" lon="1.415">
        <ele>2502.11</ele>
        <time>2017-09-02T13:25:01Z</time>
      </trkpt>
      <trkpt lat="42.67886" lon="1.41502">
        <ele>2506.81</ele>
        <time>2017-09-02T13:26:18Z</time>
      </trkpt>
      <trkpt lat="42.67893" lon="1.41479">
        <ele>2494.23</ele>
        <time>2017-09-02T13:27:25Z</time>
      </trkpt>
      <trkpt lat="42.67886" lon="1.41457">
        <ele>2510.41</ele>
        <time>2017-09-02T13:30:10Z</time>
      </trkpt>
      <trkpt lat="42.67883" lon="1.41432">
        <ele>2525.61</ele>
        <time>2017-09-02T13:34:02Z</time>
      </trkpt>
      <trkpt lat="42.67876" lon="1.41408">
        <ele>2526</ele>
        <time>2017-09-02T13:35:00Z</time>
      </trkpt>
      <trkpt lat="42.67858" lon="1.41405">
        <ele>2530.51</ele>
        <time>2017-09-02T13:36:32Z</time>
      </trkpt>
      <trkpt lat="42.67842" lon="1.41392">
        <ele>2535.12</ele>
        <time>2017-09-02T13:36:59Z</time>
      </trkpt>
      <trkpt lat="42.67824" lon="1.41383">
        <ele>2551.15</ele>
        <time>2017-09-02T13:38:50Z</time>
      </trkpt>
      <trkpt lat="42.67808" lon="1.41372">
        <ele>2558.22</ele>
        <time>2017-09-02T13:39:52Z</time>
      </trkpt>
      <trkpt lat="42.67792" lon="1.4136">
        <ele>2556.91</ele>
        <time>2017-09-02T13:41:26Z</time>
      </trkpt>
      <trkpt lat="42.67777" lon="1.41374">
        <ele>2558.86</ele>
        <time>2017-09-02T13:42:08Z</time>
      </trkpt>
      <trkpt lat="42.67769" lon="1.41395">
        <ele>2577.89</ele>
        <time>2017-09-02T13:43:17Z</time>
      </trkpt>
      <trkpt lat="42.67756" lon="1.41415">
        <ele>2573.74</ele>
        <time>2017-09-02T13:43:51Z</time>
      </trkpt>
      <trkpt lat="42.6774" lon="1.41426">
        <ele>2568.91</ele>
        <time>2017-09-02T13:44:15Z</time>
      </trkpt>
      <trkpt lat="42.67725" lon="1.4144">
        <ele>2585.87</ele>
        <time>2017-09-02T13:47:22Z</time>
      </trkpt>
      <trkpt lat="42.67707" lon="1.41441">
        <ele>2578.23</ele>
        <time>2017-09-02T13:48:15Z</time>
      </trkpt>
      <trkpt lat="42.67689" lon="1.41441">
        <ele>2583.74</ele>
        <time>2017-09-02T13:48:51Z</time>
      </trkpt>
      <trkpt lat="42.67675" lon="1.41458">
        <ele>2588.6</ele>
        <time>2017-09-02T13:49:51Z</time>
      </trkpt>
      <trkpt lat="42.67658" lon="1.41465">
        <ele>2603.21</ele>
        <time>2017-09-02T13:51:05Z</time>
      </trkpt>
      <trkpt lat="42.6764" lon="1.41467">
        <ele>2607.26</ele>
        <time>2017-09-02T13:52:17Z</time>
      </trkpt>
      <trkpt lat="42.67621" lon="1.41468">
        <ele>2616.51</ele>
        <time>2017-09-02T13:54:06Z</time>
      </trkpt>
      <trkpt lat="42.67604" lon="1.4146">
        <ele>2620.52</ele>
        <time>2017-09-02T13:55:15Z</time>
      </trkpt>
      <trkpt lat="42.67586" lon="1.41468">
        <ele>2624.18</ele>
        <time>2017-09-02T13:57:23Z</time>
      </trkpt>
      <trkpt lat="42.67567" lon="1.4147">
        <ele>2641.19</ele>
        <time>2017-09-02T13:58:50Z</time>
      </trkpt>
      <trkpt lat="42.6755" lon="1.41476">
        <ele>2647.93</ele>
        <time>2017-09-02T13:59:53Z</time>
      </trkpt>
      <trkpt lat="42.67532" lon="1.41486">
        <ele>2651.46</ele>
        <time>2017-09-02T14:00:19Z</time>
      </trkpt>
      <trkpt lat="42.67514" lon="1.41484">
        <ele>2658.45</ele>
        <time>2017-09-02T14:00:45Z</time>
      </trkpt>
      <trkpt lat="42.675" lon="1.41466">
        <ele>2655.22</ele>
        <time>2017-09-02T14:01:14Z</time>
      </trkpt>
      <trkpt lat="42.67499" lon="1.41442">
        <ele>2642.59</ele>
        <time>2017-09-02T14:03:08Z</time>
      </trkpt>
      <trkpt lat="42.67492" lon="1.41419">
        <ele>2639.51</ele>
        <time>2017-09-02T14:03:37Z</time>
      </trkpt>
      <trkpt lat="42.67485" lon="1.41441">
        <ele>2652.18</ele>
        <time>2017-09-02T14:28:17Z</time>
      </trkpt>
      <trkpt lat="42.6748" lon="1.41466">
        <ele>2646.95</ele>
        <time>2017-09-02T14:28:30Z</time>
      </trkpt>
      <trkpt lat="42.67479" lon="1.41491">
        <ele>2655.47</ele>
        <time>2017-09-02T14:28:57Z</time>
      </trkpt>
      <trkpt lat="42.67462" lon="1.41499">
        <ele>2655.27</ele>
        <time>2017-09-02T14:30:11Z</time>
      </trkpt>
      <trkpt lat="42.67478" lon="1.41485">
        <ele>2658.68</ele>
        <time>2017-09-02T14:35:10Z</time>
      </trkpt>
      <trkpt lat="42.67481" lon="1.4146">
        <ele>2641.48</ele>
        <time>2017-09-02T14:35:33Z</time>
      </trkpt>
      <trkpt lat="42.67487" lon="1.41436">
        <ele>2639.17</ele>
        <time>2017-09-02T14:35:46Z</time>
      </trkpt>
      <trkpt lat="42.67494" lon="1.41413">
        <ele>2648.12</ele>
        <time>2017-09-02T14:50:46Z</time>
      </trkpt>
      <trkpt lat="42.67493" lon="1.41388">
        <ele>2642.5</ele>
        <time>2017-09-02T14:51:13Z</time>
      </trkpt>
      <trkpt lat="42.67494" lon="1.41363">
        <ele>2643.83</ele>
        <time>2017-09-02T14:51:52Z</time>
      </trkpt>
      <trkpt lat="42.67499" lon="1.41339">
        <ele>2649.3</ele>
        <time>2017-09-02T14:52:25Z</time>
      </trkpt>
      <trkpt lat="42.67499" lon="1.41314">
        <ele>2651.2</ele>
        <time>2017-09-02T14:52:59Z</time>
      </trkpt>
      <trkpt lat="42.67504" lon="1.4129">
        <ele>2661.21</ele>
        <time>2017-09-02T14:54:38Z</time>
      </trkpt>
      <trkpt lat="42.67506" lon="1.41266">
        <ele>2667.85</ele>
        <time>2017-09-02T14:55:03Z</time>
      </trkpt>
      <trkpt lat="42.67508" lon="1.41242">
        <ele>2671.12</ele>
        <time>2017-09-02T14:55:33Z</time>
      </trkpt>
      <trkpt lat="42.67513" lon="1.41217">
        <ele>2675.7</ele>
        <time>2017-09-02T14:56:09Z</time>
      </trkpt>
      <trkpt lat="42.67519" lon="1.41194">
        <ele>2671.51</ele>
        <time>2017-09-02T14:57:24Z</time>
      </trkpt>
      <trkpt lat="42.67535" lon="1.41182">
        <ele>2690.11</ele>
        <time>2017-09-02T14:59:25Z</time>
      </trkpt>
      <trkpt lat="42.67549" lon="1.41167">
        <ele>2719.4</ele>
        <time>2017-09-02T15:03:13Z</time>
      </trkpt>
      <trkpt lat="42.67564" lon="1.41152">
        <ele>2732.94</ele>
        <time>2017-09-02T15:05:10Z</time>
      </trkpt>
      <trkpt lat="42.67573" lon="1.4113">
        <ele>2744.91</ele>
        <time>2017-09-02T15:06:35Z</time>
      </trkpt>
      <trkpt lat="42.67591" lon="1.41123">
        <ele>2748.24</ele>
        <time>2017-09-02T15:08:01Z</time>
      </trkpt>
      <trkpt lat="42.67602" lon="1.41102">
        <ele>2751.09</ele>
        <time>2017-09-02T15:09:13Z</time>
      </trkpt>
      <trkpt lat="42.67612" lon="1.41081">
        <ele>2763.68</ele>
        <time>2017-09-02T15:14:31Z</time>
      </trkpt>
      <trkpt lat="42.67598" lon="1.41064">
        <ele>2771.93</ele>
        <time>2017-09-02T15:16:52Z</time>
      </trkpt>
      <trkpt lat="42.67579" lon="1.41062">
        <ele>2780.93</ele>
        <time>2017-09-02T15:18:05Z</time>
      </trkpt>
      <trkpt lat="42.67562" lon="1.41072">
        <ele>2785.91</ele>
        <time>2017-09-02T15:20:00Z</time>
      </trkpt>
      <trkpt lat="42.67554" lon="1.4105">
        <ele>2798.56</ele>
        <time>2017-09-02T15:23:01Z</time>
      </trkpt>
      <trkpt lat="42.67541" lon="1.41032">
        <ele>2811.9</ele>
        <time>2017-09-02T15:24:31Z</time>
      </trkpt>
      <trkpt lat="42.67537" lon="1.41008">
        <ele>2834.86</ele>
        <time>2017-09-02T15:26:50Z</time>
      </trkpt>
      <trkpt lat="42.67521" lon="1.40996">
        <ele>2848.21</ele>
        <time>2017-09-02T15:28:47Z</time>
      </trkpt>
      <trkpt lat="42.67505" lon="1.40987">
        <ele>2857.02</ele>
        <time>2017-09-02T15:30:26Z</time>
      </trkpt>
      <trkpt lat="42.67486" lon="1.40988">
        <ele>2879.89</ele>
        <time>2017-09-02T15:32:37Z</time>
      </trkpt>
      <trkpt lat="42.67473" lon="1.41005">
        <ele>2889.51</ele>
        <time>2017-09-02T15:33:58Z</time>
      </trkpt>
      <trkpt lat="42.67455" lon="1.41003">
        <ele>2898.12</ele>
        <time>2017-09-02T15:36:43Z</time>
      </trkpt>
      <trkpt lat="42.6745" lon="1.40979">
        <ele>2905</ele>
        <time>2017-09-02T15:37:35Z</time>
      </trkpt>
      <trkpt lat="42.67432" lon="1.4098">
        <ele>2923.51</ele>
        <time>2017-09-02T15:40:39Z</time>
      </trkpt>
      <trkpt lat="42.67429" lon="1.40956">
        <ele>2947.18</ele>
        <time>2017-09-02T15:43:42Z</time>
      </trkpt>
      <trkpt lat="42.67433" lon="1.40931">
        <ele>2951.91</ele>
        <time>2017-09-02T15:44:28Z</time>
      </trkpt>
      <trkpt lat="42.67441" lon="1.40907">
        <ele>2958.11</ele>
        <time>2017-09-02T15:45:15Z</time>
      </trkpt>
      <trkpt lat="42.67442" lon="1.40882">
        <ele>2958.82</ele>
        <time>2017-09-02T15:45:43Z</time>
      </trkpt>
      <trkpt lat="42.67426" lon="1.40868">
        <ele>2962.18</ele>
        <time>2017-09-02T15:49:15Z</time>
      </trkpt>
      <trkpt lat="42.67408" lon="1.40874">
        <ele>2963.3</ele>
        <time>2017-09-02T15:49:47Z</time>
      </trkpt>
      <trkpt lat="42.67392" lon="1.40863">
        <ele>2972.79</ele>
        <time>2017-09-02T15:50:52Z</time>
      </trkpt>
      <trkpt lat="42.67373" lon="1.40861">
        <ele>2980.63</ele>
        <time>2017-09-02T15:51:48Z</time>
      </trkpt>
      <trkpt lat="42.6736" lon="1.40844">
        <ele>2983.91</ele>
        <time>2017-09-02T15:52:40Z</time>
      </trkpt>
      <trkpt lat="42.67344" lon="1.4083">
        <ele>2996.18</ele>
        <time>2017-09-02T15:53:45Z</time>
      </trkpt>
      <trkpt lat="42.67332" lon="1.40811">
        <ele>2996.9</ele>
        <time>2017-09-02T15:54:21Z</time>
      </trkpt>
      <trkpt lat="42.67316" lon="1.40801">
        <ele>3000.3</ele>
        <time>2017-09-02T15:55:12Z</time>
      </trkpt>
      <trkpt lat="42.67298" lon="1.40795">
        <ele>3014.12</ele>
        <time>2017-09-02T15:56:02Z</time>
      </trkpt>
      <trkpt lat="42.6728" lon="1.40792">
        <ele>3015.51</ele>
        <time>2017-09-02T15:56:38Z</time>
      </trkpt>
      <trkpt lat="42.67262" lon="1.40803">
        <ele>3019.42</ele>
        <time>2017-09-02T15:57:09Z</time>
      </trkpt>
      <trkpt lat="42.67245" lon="1.40797">
        <ele>3025.32</ele>
        <time>2017-09-02T15:57:59Z</time>
      </trkpt>
      <trkpt lat="42.67237" lon="1.40774">
        <ele>3029.91</ele>
        <time>2017-09-02T15:58:43Z</time>
      </trkpt>
      <trkpt lat="42.67231" lon="1.40751">
        <ele>3037.82</ele>
        <time>2017-09-02T15:59:49Z</time>
      </trkpt>
      <trkpt lat="42.67222" lon="1.40728">
        <ele>3042.19</ele>
        <time>2017-09-02T16:00:46Z</time>
      </trkpt>
      <trkpt lat="42.67219" lon="1.40703">
        <ele>3049.24</ele>
        <time>2017-09-02T16:01:45Z</time>
      </trkpt>
      <trkpt lat="42.67211" lon="1.40681">
        <ele>3063.84</ele>
        <time>2017-09-02T16:02:44Z</time>
      </trkpt>
      <trkpt lat="42.67206" lon="1.40657">
        <ele>3065.24</ele>
        <time>2017-09-02T16:03:23Z</time>
      </trkpt>
      <trkpt lat="42.67192" lon="1.40642">
        <ele>3070.21</ele>
        <time>2017-09-02T16:03:59Z</time>
      </trkpt>
      <trkpt lat="42.67189" lon="1.40618">
        <ele>3073.21</ele>
        <time>2017-09-02T16:05:20Z</time>
      </trkpt>
      <trkpt lat="42.67188" lon="1.40593">
        <ele>3071.51</ele>
        <time>2017-09-02T16:06:13Z</time>
      </trkpt>
      <trkpt lat="42.67185" lon="1.40635">
        <ele>3081.21</ele>
        <time>2017-09-03T06:32:23Z</time>
      </trkpt>
      <trkpt lat="42.6719" lon="1.40611">
        <ele>3079.2</ele>
        <time>2017-09-03T06:33:59Z</time>
      </trkpt>
      <trkpt lat="42.67194" lon="1.40587">
        <ele>3078.15</ele>
        <time>2017-09-03T06:34:12Z</time>
      </trkpt>
      <trkpt lat="42.67198" lon="1.40563">
        <ele>3076.91</ele>
        <time>2017-09-03T06:34:33Z</time>
      </trkpt>
      <trkpt lat="42.672" lon="1.40537">
        <ele>3076.21</ele>
        <time>2017-09-03T06:34:54Z</time>
      </trkpt>
      <trkpt lat="42.67196" lon="1.40512">
        <ele>3076.23</ele>
        <time>2017-09-03T06:35:20Z</time>
      </trkpt>
      <trkpt lat="42.67198" lon="1.40486">
        <ele>3075.24</ele>
        <time>2017-09-03T06:35:36Z</time>
      </trkpt>
      <trkpt lat="42.672" lon="1.40461">
        <ele>3073.51</ele>
        <time>2017-09-03T06:35:54Z</time>
      </trkpt>
      <trkpt lat="42.67191" lon="1.40439">
        <ele>3072.19</ele>
        <time>2017-09-03T06:36:19Z</time>
      </trkpt>
      <trkpt lat="42.67185" lon="1.40415">
        <ele>3064.01</ele>
        <time>2017-09-03T06:36:54Z</time>
      </trkpt>
      <trkpt lat="42.67177" lon="1.40393">
        <ele>3060.44</ele>
        <time>2017-09-03T06:37:17Z</time>
      </trkpt>
      <trkpt lat="42.67173" lon="1.40368">
        <ele>3051.31</ele>
        <time>2017-09-03T06:37:52Z</time>
      </trkpt>
      <trkpt lat="42.67174" lon="1.40342">
        <ele>3042.63</ele>
        <time>2017-09-03T06:38:16Z</time>
      </trkpt>
      <trkpt lat="42.67175" lon="1.40317">
        <ele>3040.23</ele>
        <time>2017-09-03T06:38:34Z</time>
      </trkpt>
      <trkpt lat="42.67179" lon="1.40293">
        <ele>3038.62</ele>
        <time>2017-09-03T06:39:00Z</time>
      </trkpt>
      <trkpt lat="42.67167" lon="1.40274">
        <ele>3040.18</ele>
        <time>2017-09-03T06:39:26Z</time>
      </trkpt>
      <trkpt lat="42.67154" lon="1.40256">
        <ele>3027.33</ele>
        <time>2017-09-03T06:40:05Z</time>
      </trkpt>
      <trkpt lat="42.67135" lon="1.4026">
        <ele>3017.97</ele>
        <time>2017-09-03T06:40:55Z</time>
      </trkpt>
      <trkpt lat="42.67117" lon="1.40252">
        <ele>3009.21</ele>
        <time>2017-09-03T06:41:29Z</time>
      </trkpt>
      <trkpt lat="42.67101" lon="1.40241">
        <ele>3000.94</ele>
        <time>2017-09-03T06:42:20Z</time>
      </trkpt>
      <trkpt lat="42.6709" lon="1.4022">
        <ele>2987.63</ele>
        <time>2017-09-03T06:43:14Z</time>
      </trkpt>
      <trkpt lat="42.67072" lon="1.40213">
        <ele>2982.28</ele>
        <time>2017-09-03T06:43:41Z</time>
      </trkpt>
      <trkpt lat="42.67053" lon="1.40212">
        <ele>2981.88</ele>
        <time>2017-09-03T06:44:00Z</time>
      </trkpt>
      <trkpt lat="42.67035" lon="1.4021">
        <ele>2981.21</ele>
        <time>2017-09-03T06:44:30Z</time>
      </trkpt>
      <trkpt lat="42.67018" lon="1.40202">
        <ele>2989.1</ele>
        <time>2017-09-03T06:44:52Z</time>
      </trkpt>
      <trkpt lat="42.67" lon="1.40193">
        <ele>2994.44</ele>
        <time>2017-09-03T06:45:33Z</time>
      </trkpt>
      <trkpt lat="42.66983" lon="1.40186">
        <ele>2999.12</ele>
        <time>2017-09-03T06:46:06Z</time>
      </trkpt>
      <trkpt lat="42.66969" lon="1.40169">
        <ele>3008.6</ele>
        <time>2017-09-03T06:48:11Z</time>
      </trkpt>
      <trkpt lat="42.66961" lon="1.40147">
        <ele>3012.42</ele>
        <time>2017-09-03T06:48:40Z</time>
      </trkpt>
      <trkpt lat="42.66951" lon="1.40127">
        <ele>3011.92</ele>
        <time>2017-09-03T06:49:06Z</time>
      </trkpt>
      <trkpt lat="42.66937" lon="1.40111">
        <ele>3017</ele>
        <time>2017-09-03T06:49:35Z</time>
      </trkpt>
      <trkpt lat="42.66923" lon="1.40096">
        <ele>3018.21</ele>
        <time>2017-09-03T06:49:59Z</time>
      </trkpt>
      <trkpt lat="42.66905" lon="1.40084">
        <ele>3024.21</ele>
        <time>2017-09-03T06:50:27Z</time>
      </trkpt>
      <trkpt lat="42.66897" lon="1.40062">
        <ele>3025.22</ele>
        <time>2017-09-03T06:50:55Z</time>
      </trkpt>
      <trkpt lat="42.66885" lon="1.40042">
        <ele>3030.18</ele>
        <time>2017-09-03T06:51:25Z</time>
      </trkpt>
      <trkpt lat="42.66869" lon="1.40029">
        <ele>3032.2</ele>
        <time>2017-09-03T06:51:44Z</time>
      </trkpt>
      <trkpt lat="42.66854" lon="1.40016">
        <ele>3032.21</ele>
        <time>2017-09-03T06:52:00Z</time>
      </trkpt>
      <trkpt lat="42.66839" lon="1.40001">
        <ele>3029.24</ele>
        <time>2017-09-03T06:52:16Z</time>
      </trkpt>
      <trkpt lat="42.66844" lon="1.39977">
        <ele>3033.2</ele>
        <time>2017-09-03T06:52:42Z</time>
      </trkpt>
      <trkpt lat="42.66845" lon="1.39952">
        <ele>3033.22</ele>
        <time>2017-09-03T06:53:08Z</time>
      </trkpt>
      <trkpt lat="42.66847" lon="1.39927">
        <ele>3035.12</ele>
        <time>2017-09-03T06:53:35Z</time>
      </trkpt>
      <trkpt lat="42.66852" lon="1.39903">
        <ele>3042.88</ele>
        <time>2017-09-03T06:54:13Z</time>
      </trkpt>
      <trkpt lat="42.66836" lon="1.39891">
        <ele>3049.23</ele>
        <time>2017-09-03T06:55:08Z</time>
      </trkpt>
      <trkpt lat="42.66826" lon="1.39871">
        <ele>3061.1</ele>
        <time>2017-09-03T06:55:42Z</time>
      </trkpt>
      <trkpt lat="42.6682" lon="1.39848">
        <ele>3058.33</ele>
        <time>2017-09-03T06:56:05Z</time>
      </trkpt>
      <trkpt lat="42.66815" lon="1.39824">
        <ele>3063.3</ele>
        <time>2017-09-03T06:57:02Z</time>
      </trkpt>
      <trkpt lat="42.66806" lon="1.39803">
        <ele>3072.89</ele>
        <time>2017-09-03T06:57:48Z</time>
      </trkpt>
      <trkpt lat="42.66803" lon="1.39778">
        <ele>3084.23</ele>
        <time>2017-09-03T06:58:58Z</time>
      </trkpt>
      <trkpt lat="42.66791" lon="1.39759">
        <ele>3096.2</ele>
        <time>2017-09-03T07:00:15Z</time>
      </trkpt>
      <trkpt lat="42.66775" lon="1.39746">
        <ele>3104.82</ele>
        <time>2017-09-03T07:01:19Z</time>
      </trkpt>
      <trkpt lat="42.66759" lon="1.39759">
        <ele>3110.21</ele>
        <time>2017-09-03T07:02:21Z</time>
      </trkpt>
      <trkpt lat="42.66741" lon="1.39762">
        <ele>3129.1</ele>
        <time>2017-09-03T07:04:27Z</time>
      </trkpt>
      <trkpt lat="42.66724" lon="1.39767">
        <ele>3136.89</ele>
        <time>2017-09-03T07:05:55Z</time>
      </trkpt>
      <trkpt lat="42.66708" lon="1.39781">
        <ele>3139.91</ele>
        <time>2017-09-03T07:06:36Z</time>
      </trkpt>
      <trkpt lat="42.66723" lon="1.39767">
        <ele>3136.51</ele>
        <time>2017-09-03T07:17:00Z</time>
      </trkpt>
      <trkpt lat="42.66741" lon="1.39771">
        <ele>3131.29</ele>
        <time>2017-09-03T07:18:56Z</time>
      </trkpt>
      <trkpt lat="42.66758" lon="1.39762">
        <ele>3114.64</ele>
        <time>2017-09-03T07:20:23Z</time>
      </trkpt>
      <trkpt lat="42.66769" lon="1.39743">
        <ele>3107.91</ele>
        <time>2017-09-03T07:20:50Z</time>
      </trkpt>
      <trkpt lat="42.66782" lon="1.39725">
        <ele>3111.91</ele>
        <time>2017-09-03T07:21:32Z</time>
      </trkpt>
      <trkpt lat="42.6679" lon="1.39703">
        <ele>3123.21</ele>
        <time>2017-09-03T07:22:24Z</time>
      </trkpt>
      <trkpt lat="42.66804" lon="1.39687">
        <ele>3127.82</ele>
        <time>2017-09-03T07:23:23Z</time>
      </trkpt>
      <trkpt lat="42.66793" lon="1.39708">
        <ele>3126.64</ele>
        <time>2017-09-03T07:31:46Z</time>
      </trkpt>
      <trkpt lat="42.66782" lon="1.39729">
        <ele>3117.77</ele>
        <time>2017-09-03T07:32:21Z</time>
      </trkpt>
      <trkpt lat="42.66782" lon="1.39753">
        <ele>3105.9</ele>
        <time>2017-09-03T07:32:54Z</time>
      </trkpt>
      <trkpt lat="42.66792" lon="1.39775">
        <ele>3098.22</ele>
        <time>2017-09-03T07:33:29Z</time>
      </trkpt>
      <trkpt lat="42.66803" lon="1.39794">
        <ele>3089.45</ele>
        <time>2017-09-03T07:34:05Z</time>
      </trkpt>
      <trkpt lat="42.66813" lon="1.39816">
        <ele>3078.31</ele>
        <time>2017-09-03T07:34:49Z</time>
      </trkpt>
      <trkpt lat="42.66819" lon="1.3984">
        <ele>3071.23</ele>
        <time>2017-09-03T07:35:52Z</time>
      </trkpt>
      <trkpt lat="42.66826" lon="1.39863">
        <ele>3060.19</ele>
        <time>2017-09-03T07:36:22Z</time>
      </trkpt>
      <trkpt lat="42.66834" lon="1.39886">
        <ele>3058.7</ele>
        <time>2017-09-03T08:08:21Z</time>
      </trkpt>
      <trkpt lat="42.66849" lon="1.39901">
        <ele>3053.3</ele>
        <time>2017-09-03T08:08:45Z</time>
      </trkpt>
      <trkpt lat="42.66862" lon="1.39917">
        <ele>3037.22</ele>
        <time>2017-09-03T08:09:16Z</time>
      </trkpt>
      <trkpt lat="42.66879" lon="1.39929">
        <ele>3031.51</ele>
        <time>2017-09-03T08:10:12Z</time>
      </trkpt>
      <trkpt lat="42.66898" lon="1.39931">
        <ele>3032.53</ele>
        <time>2017-09-03T08:10:34Z</time>
      </trkpt>
      <trkpt lat="42.66915" lon="1.39938">
        <ele>3019.21</ele>
        <time>2017-09-03T08:11:07Z</time>
      </trkpt>
      <trkpt lat="42.6693" lon="1.39953">
        <ele>3013.24</ele>
        <time>2017-09-03T08:11:42Z</time>
      </trkpt>
      <trkpt lat="42.66946" lon="1.39941">
        <ele>3003.18</ele>
        <time>2017-09-03T08:12:09Z</time>
      </trkpt>
      <trkpt lat="42.66964" lon="1.39943">
        <ele>2986.63</ele>
        <time>2017-09-03T08:12:59Z</time>
      </trkpt>
      <trkpt lat="42.66982" lon="1.39934">
        <ele>2981.84</ele>
        <time>2017-09-03T08:13:44Z</time>
      </trkpt>
      <trkpt lat="42.66993" lon="1.39953">
        <ele>2977.21</ele>
        <time>2017-09-03T08:14:10Z</time>
      </trkpt>
      <trkpt lat="42.66999" lon="1.39977">
        <ele>2969.92</ele>
        <time>2017-09-03T08:14:57Z</time>
      </trkpt>
      <trkpt lat="42.67016" lon="1.39983">
        <ele>2970.17</ele>
        <time>2017-09-03T08:15:38Z</time>
      </trkpt>
      <trkpt lat="42.67033" lon="1.39994">
        <ele>2950.85</ele>
        <time>2017-09-03T08:17:02Z</time>
      </trkpt>
      <trkpt lat="42.6705" lon="1.39987">
        <ele>2950.21</ele>
        <time>2017-09-03T08:17:43Z</time>
      </trkpt>
      <trkpt lat="42.67065" lon="1.40002">
        <ele>2944.3</ele>
        <time>2017-09-03T08:18:19Z</time>
      </trkpt>
      <trkpt lat="42.67083" lon="1.40008">
        <ele>2935.28</ele>
        <time>2017-09-03T08:18:42Z</time>
      </trkpt>
      <trkpt lat="42.6709" lon="1.40031">
        <ele>2923.92</ele>
        <time>2017-09-03T08:19:13Z</time>
      </trkpt>
      <trkpt lat="42.67094" lon="1.40056">
        <ele>2922.8</ele>
        <time>2017-09-03T08:19:42Z</time>
      </trkpt>
      <trkpt lat="42.67111" lon="1.40048">
        <ele>2918.3</ele>
        <time>2017-09-03T08:20:11Z</time>
      </trkpt>
      <trkpt lat="42.67115" lon="1.40023">
        <ele>2913.74</ele>
        <time>2017-09-03T08:20:38Z</time>
      </trkpt>
      <trkpt lat="42.67119" lon="1.39998">
        <ele>2917.51</ele>
        <time>2017-09-03T08:21:00Z</time>
      </trkpt>
      <trkpt lat="42.67136" lon="1.3999">
        <ele>2909.59</ele>
        <time>2017-09-03T08:22:36Z</time>
      </trkpt>
      <trkpt lat="42.67154" lon="1.39982">
        <ele>2903.24</ele>
        <time>2017-09-03T08:23:22Z</time>
      </trkpt>
      <trkpt lat="42.6717" lon="1.3997">
        <ele>2900.41</ele>
        <time>2017-09-03T08:24:08Z</time>
      </trkpt>
      <trkpt lat="42.67188" lon="1.39973">
        <ele>2893.22</ele>
        <time>2017-09-03T08:25:14Z</time>
      </trkpt>
      <trkpt lat="42.67204" lon="1.39961">
        <ele>2890.5</ele>
        <time>2017-09-03T08:26:13Z</time>
      </trkpt>
      <trkpt lat="42.67221" lon="1.39952">
        <ele>2877.14</ele>
        <time>2017-09-03T08:26:58Z</time>
      </trkpt>
      <trkpt lat="42.67237" lon="1.3994">
        <ele>2880.54</ele>
        <time>2017-09-03T08:27:34Z</time>
      </trkpt>
      <trkpt lat="42.67255" lon="1.39933">
        <ele>2880.93</ele>
        <time>2017-09-03T08:27:57Z</time>
      </trkpt>
      <trkpt lat="42.67272" lon="1.39942">
        <ele>2881.31</ele>
        <time>2017-09-03T08:28:47Z</time>
      </trkpt>
      <trkpt lat="42.67291" lon="1.39945">
        <ele>2880</ele>
        <time>2017-09-03T08:29:12Z</time>
      </trkpt>
      <trkpt lat="42.67307" lon="1.39956">
        <ele>2872.53</ele>
        <time>2017-09-03T08:29:52Z</time>
      </trkpt>
      <trkpt lat="42.67325" lon="1.39963">
        <ele>2872.98</ele>
        <time>2017-09-03T08:30:17Z</time>
      </trkpt>
      <trkpt lat="42.67343" lon="1.3997">
        <ele>2859.25</ele>
        <time>2017-09-03T08:31:03Z</time>
      </trkpt>
      <trkpt lat="42.6736" lon="1.39963">
        <ele>2853.1</ele>
        <time>2017-09-03T08:31:36Z</time>
      </trkpt>
      <trkpt lat="42.67375" lon="1.39949">
        <ele>2851.9</ele>
        <time>2017-09-03T08:32:05Z</time>
      </trkpt>
      <trkpt lat="42.67393" lon="1.39941">
        <ele>2850.3</ele>
        <time>2017-09-03T08:32:30Z</time>
      </trkpt>
      <trkpt lat="42.67411" lon="1.39949">
        <ele>2845.77</ele>
        <time>2017-09-03T08:33:39Z</time>
      </trkpt>
      <trkpt lat="42.67429" lon="1.39945">
        <ele>2841.6</ele>
        <time>2017-09-03T08:34:04Z</time>
      </trkpt>
      <trkpt lat="42.67442" lon="1.39928">
        <ele>2852.19</ele>
        <time>2017-09-03T08:34:22Z</time>
      </trkpt>
      <trkpt lat="42.67459" lon="1.39917">
        <ele>2845.21</ele>
        <time>2017-09-03T08:34:39Z</time>
      </trkpt>
      <trkpt lat="42.67476" lon="1.39927">
        <ele>2837.21</ele>
        <time>2017-09-03T08:35:06Z</time>
      </trkpt>
      <trkpt lat="42.67489" lon="1.39909">
        <ele>2826.32</ele>
        <time>2017-09-03T08:35:38Z</time>
      </trkpt>
      <trkpt lat="42.67506" lon="1.39901">
        <ele>2823.89</ele>
        <time>2017-09-03T08:40:07Z</time>
      </trkpt>
      <trkpt lat="42.67524" lon="1.39901">
        <ele>2807.85</ele>
        <time>2017-09-03T08:41:01Z</time>
      </trkpt>
      <trkpt lat="42.6754" lon="1.39891">
        <ele>2794.41</ele>
        <time>2017-09-03T08:42:38Z</time>
      </trkpt>
      <trkpt lat="42.67557" lon="1.39884">
        <ele>2778.12</ele>
        <time>2017-09-03T08:43:56Z</time>
      </trkpt>
      <trkpt lat="42.67576" lon="1.39889">
        <ele>2773.91</ele>
        <time>2017-09-03T08:44:38Z</time>
      </trkpt>
      <trkpt lat="42.67593" lon="1.39879">
        <ele>2767.21</ele>
        <time>2017-09-03T08:45:34Z</time>
      </trkpt>
      <trkpt lat="42.6761" lon="1.39887">
        <ele>2758.91</ele>
        <time>2017-09-03T08:46:42Z</time>
      </trkpt>
      <trkpt lat="42.67624" lon="1.39902">
        <ele>2754.42</ele>
        <time>2017-09-03T08:47:45Z</time>
      </trkpt>
      <trkpt lat="42.67642" lon="1.39911">
        <ele>2745.19</ele>
        <time>2017-09-03T08:48:19Z</time>
      </trkpt>
      <trkpt lat="42.67661" lon="1.39908">
        <ele>2738.09</ele>
        <time>2017-09-03T08:48:51Z</time>
      </trkpt>
      <trkpt lat="42.67678" lon="1.39897">
        <ele>2724.55</ele>
        <time>2017-09-03T08:49:17Z</time>
      </trkpt>
      <trkpt lat="42.67694" lon="1.3991">
        <ele>2720.12</ele>
        <time>2017-09-03T08:49:46Z</time>
      </trkpt>
      <trkpt lat="42.67712" lon="1.39901">
        <ele>2711.19</ele>
        <time>2017-09-03T08:50:52Z</time>
      </trkpt>
      <trkpt lat="42.6772" lon="1.39879">
        <ele>2701.6</ele>
        <time>2017-09-03T08:52:28Z</time>
      </trkpt>
      <trkpt lat="42.67728" lon="1.39856">
        <ele>2698.36</ele>
        <time>2017-09-03T08:52:52Z</time>
      </trkpt>
      <trkpt lat="42.6774" lon="1.39836">
        <ele>2689.24</ele>
        <time>2017-09-03T08:53:23Z</time>
      </trkpt>
      <trkpt lat="42.67751" lon="1.39815">
        <ele>2685.24</ele>
        <time>2017-09-03T08:53:43Z</time>
      </trkpt>
      <trkpt lat="42.67765" lon="1.39798">
        <ele>2679.52</ele>
        <time>2017-09-03T08:54:07Z</time>
      </trkpt>
      <trkpt lat="42.67777" lon="1.39779">
        <ele>2674.21</ele>
        <time>2017-09-03T08:56:08Z</time>
      </trkpt>
      <trkpt lat="42.67786" lon="1.39757">
        <ele>2663.51</ele>
        <time>2017-09-03T08:56:53Z</time>
      </trkpt>
      <trkpt lat="42.6779" lon="1.39733">
        <ele>2660.3</ele>
        <time>2017-09-03T08:57:45Z</time>
      </trkpt>
      <trkpt lat="42.67804" lon="1.39717">
        <ele>2646.02</ele>
        <time>2017-09-03T08:59:05Z</time>
      </trkpt>
      <trkpt lat="42.67821" lon="1.39729">
        <ele>2640.03</ele>
        <time>2017-09-03T08:59:37Z</time>
      </trkpt>
      <trkpt lat="42.67834" lon="1.39746">
        <ele>2628.29</ele>
        <time>2017-09-03T09:00:17Z</time>
      </trkpt>
      <trkpt lat="42.67852" lon="1.39754">
        <ele>2606.14</ele>
        <time>2017-09-03T09:02:03Z</time>
      </trkpt>
      <trkpt lat="42.67869" lon="1.39747">
        <ele>2604.3</ele>
        <time>2017-09-03T09:04:38Z</time>
      </trkpt>
      <trkpt lat="42.67887" lon="1.3974">
        <ele>2589.21</ele>
        <time>2017-09-03T09:05:36Z</time>
      </trkpt>
      <trkpt lat="42.67905" lon="1.39735">
        <ele>2585.24</ele>
        <time>2017-09-03T09:06:36Z</time>
      </trkpt>
      <trkpt lat="42.67917" lon="1.39755">
        <ele>2580.31</ele>
        <time>2017-09-03T09:07:09Z</time>
      </trkpt>
      <trkpt lat="42.67924" lon="1.39733">
        <ele>2583.32</ele>
        <time>2017-09-03T09:08:06Z</time>
      </trkpt>
      <trkpt lat="42.67938" lon="1.39717">
        <ele>2575.9</ele>
        <time>2017-09-03T09:08:42Z</time>
      </trkpt>
      <trkpt lat="42.67956" lon="1.3972">
        <ele>2566.21</ele>
        <time>2017-09-03T09:09:05Z</time>
      </trkpt>
      <trkpt lat="42.6796" lon="1.39744">
        <ele>2576.27</ele>
        <time>2017-09-03T09:10:55Z</time>
      </trkpt>
      <trkpt lat="42.67961" lon="1.39769">
        <ele>2576.3</ele>
        <time>2017-09-03T09:11:26Z</time>
      </trkpt>
      <trkpt lat="42.67963" lon="1.39794">
        <ele>2575.12</ele>
        <time>2017-09-03T09:11:48Z</time>
      </trkpt>
      <trkpt lat="42.67971" lon="1.39816">
        <ele>2571.21</ele>
        <time>2017-09-03T09:12:15Z</time>
      </trkpt>
      <trkpt lat="42.67966" lon="1.39839">
        <ele>2560.24</ele>
        <time>2017-09-03T09:13:12Z</time>
      </trkpt>
      <trkpt lat="42.67981" lon="1.39823">
        <ele>2555.75</ele>
        <time>2017-09-03T09:14:21Z</time>
      </trkpt>
      <trkpt lat="42.67992" lon="1.39801">
        <ele>2557.51</ele>
        <time>2017-09-03T09:15:01Z</time>
      </trkpt>
      <trkpt lat="42.67993" lon="1.39777">
        <ele>2556.09</ele>
        <time>2017-09-03T09:15:36Z</time>
      </trkpt>
      <trkpt lat="42.67999" lon="1.39753">
        <ele>2548.2</ele>
        <time>2017-09-03T09:16:23Z</time>
      </trkpt>
      <trkpt lat="42.68012" lon="1.39735">
        <ele>2547.69</ele>
        <time>2017-09-03T09:16:55Z</time>
      </trkpt>
      <trkpt lat="42.68021" lon="1.39713">
        <ele>2533.62</ele>
        <time>2017-09-03T09:17:38Z</time>
      </trkpt>
      <trkpt lat="42.68032" lon="1.39694">
        <ele>2538.57</ele>
        <time>2017-09-03T09:18:09Z</time>
      </trkpt>
      <trkpt lat="42.68032" lon="1.39669">
        <ele>2537.51</ele>
        <time>2017-09-03T09:18:40Z</time>
      </trkpt>
      <trkpt lat="42.68038" lon="1.39645">
        <ele>2530.33</ele>
        <time>2017-09-03T09:19:10Z</time>
      </trkpt>
      <trkpt lat="42.68044" lon="1.39621">
        <ele>2536.17</ele>
        <time>2017-09-03T09:19:36Z</time>
      </trkpt>
      <trkpt lat="42.68061" lon="1.39613">
        <ele>2517.11</ele>
        <time>2017-09-03T09:20:13Z</time>
      </trkpt>
      <trkpt lat="42.68073" lon="1.39594">
        <ele>2512.42</ele>
        <time>2017-09-03T09:20:30Z</time>
      </trkpt>
      <trkpt lat="42.68078" lon="1.3957">
        <ele>2516.51</ele>
        <time>2017-09-03T09:21:06Z</time>
      </trkpt>
      <trkpt lat="42.68072" lon="1.39546">
        <ele>2505.74</ele>
        <time>2017-09-03T09:22:24Z</time>
      </trkpt>
      <trkpt lat="42.68085" lon="1.3953">
        <ele>2500.33</ele>
        <time>2017-09-03T09:22:55Z</time>
      </trkpt>
      <trkpt lat="42.68096" lon="1.39509">
        <ele>2482.02</ele>
        <time>2017-09-03T09:23:41Z</time>
      </trkpt>
      <trkpt lat="42.68097" lon="1.39485">
        <ele>2477.13</ele>
        <time>2017-09-03T09:24:30Z</time>
      </trkpt>
      <trkpt lat="42.681" lon="1.39461">
        <ele>2463.45</ele>
        <time>2017-09-03T09:25:28Z</time>
      </trkpt>
      <trkpt lat="42.68117" lon="1.39451">
        <ele>2450.62</ele>
        <time>2017-09-03T09:25:50Z</time>
      </trkpt>
      <trkpt lat="42.68135" lon="1.39447">
        <ele>2449.98</ele>
        <time>2017-09-03T09:26:35Z</time>
      </trkpt>
      <trkpt lat="42.68154" lon="1.39449">
        <ele>2447.93</ele>
        <time>2017-09-03T09:27:21Z</time>
      </trkpt>
      <trkpt lat="42.68172" lon="1.39445">
        <ele>2444.93</ele>
        <time>2017-09-03T09:28:06Z</time>
      </trkpt>
      <trkpt lat="42.68188" lon="1.39432">
        <ele>2432.2</ele>
        <time>2017-09-03T09:28:48Z</time>
      </trkpt>
      <trkpt lat="42.6819" lon="1.39407">
        <ele>2426.48</ele>
        <time>2017-09-03T09:29:29Z</time>
      </trkpt>
      <trkpt lat="42.68201" lon="1.39386">
        <ele>2420.21</ele>
        <time>2017-09-03T09:30:44Z</time>
      </trkpt>
      <trkpt lat="42.6822" lon="1.3938">
        <ele>2411.55</ele>
        <time>2017-09-03T09:31:04Z</time>
      </trkpt>
      <trkpt lat="42.68232" lon="1.39398">
        <ele>2412.57</ele>
        <time>2017-09-03T09:34:01Z</time>
      </trkpt>
      <trkpt lat="42.68247" lon="1.39414">
        <ele>2406.42</ele>
        <time>2017-09-03T09:34:30Z</time>
      </trkpt>
      <trkpt lat="42.68265" lon="1.39419">
        <ele>2402.21</ele>
        <time>2017-09-03T09:35:04Z</time>
      </trkpt>
      <trkpt lat="42.68281" lon="1.39431">
        <ele>2397.21</ele>
        <time>2017-09-03T09:35:35Z</time>
      </trkpt>
      <trkpt lat="42.68299" lon="1.39427">
        <ele>2398.95</ele>
        <time>2017-09-03T09:36:07Z</time>
      </trkpt>
      <trkpt lat="42.68318" lon="1.3943">
        <ele>2399.94</ele>
        <time>2017-09-03T09:36:28Z</time>
      </trkpt>
      <trkpt lat="42.68337" lon="1.39428">
        <ele>2394.98</ele>
        <time>2017-09-03T09:36:51Z</time>
      </trkpt>
      <trkpt lat="42.68355" lon="1.39435">
        <ele>2388.62</ele>
        <time>2017-09-03T09:37:15Z</time>
      </trkpt>
      <trkpt lat="42.68372" lon="1.39441">
        <ele>2383.17</ele>
        <time>2017-09-03T09:37:49Z</time>
      </trkpt>
      <trkpt lat="42.68391" lon="1.39437">
        <ele>2371.52</ele>
        <time>2017-09-03T09:38:29Z</time>
      </trkpt>
      <trkpt lat="42.68408" lon="1.3945">
        <ele>2367.2</ele>
        <time>2017-09-03T09:38:44Z</time>
      </trkpt>
      <trkpt lat="42.68424" lon="1.3946">
        <ele>2367.11</ele>
        <time>2017-09-03T09:39:04Z</time>
      </trkpt>
      <trkpt lat="42.68443" lon="1.39466">
        <ele>2372.23</ele>
        <time>2017-09-03T09:39:22Z</time>
      </trkpt>
      <trkpt lat="42.6846" lon="1.39476">
        <ele>2380.77</ele>
        <time>2017-09-03T09:39:45Z</time>
      </trkpt>
      <trkpt lat="42.68475" lon="1.39492">
        <ele>2379.81</ele>
        <time>2017-09-03T09:40:12Z</time>
      </trkpt>
      <trkpt lat="42.6849" lon="1.39504">
        <ele>2383.88</ele>
        <time>2017-09-03T09:40:41Z</time>
      </trkpt>
      <trkpt lat="42.68509" lon="1.39505">
        <ele>2382.51</ele>
        <time>2017-09-03T09:40:58Z</time>
      </trkpt>
      <trkpt lat="42.68523" lon="1.39522">
        <ele>2380.26</ele>
        <time>2017-09-03T09:41:19Z</time>
      </trkpt>
      <trkpt lat="42.68539" lon="1.39536">
        <ele>2377.03</ele>
        <time>2017-09-03T09:41:36Z</time>
      </trkpt>
      <trkpt lat="42.68558" lon="1.3954">
        <ele>2377.18</ele>
        <time>2017-09-03T09:41:49Z</time>
      </trkpt>
      <trkpt lat="42.68568" lon="1.39561">
        <ele>2370.99</ele>
        <time>2017-09-03T09:42:18Z</time>
      </trkpt>
      <trkpt lat="42.68581" lon="1.39579">
        <ele>2365.22</ele>
        <time>2017-09-03T09:42:51Z</time>
      </trkpt>
      <trkpt lat="42.68599" lon="1.39581">
        <ele>2364.58</ele>
        <time>2017-09-03T09:43:16Z</time>
      </trkpt>
      <trkpt lat="42.68615" lon="1.39591">
        <ele>2367.12</ele>
        <time>2017-09-03T09:43:50Z</time>
      </trkpt>
      <trkpt lat="42.68634" lon="1.39586">
        <ele>2368.12</ele>
        <time>2017-09-03T09:44:15Z</time>
      </trkpt>
      <trkpt lat="42.68648" lon="1.39601">
        <ele>2362.54</ele>
        <time>2017-09-03T09:44:38Z</time>
      </trkpt>
      <trkpt lat="42.68666" lon="1.39609">
        <ele>2364.93</ele>
        <time>2017-09-03T09:45:07Z</time>
      </trkpt>
      <trkpt lat="42.68685" lon="1.39607">
        <ele>2364.2</ele>
        <time>2017-09-03T09:46:07Z</time>
      </trkpt>
      <trkpt lat="42.68703" lon="1.3961">
        <ele>2361.21</ele>
        <time>2017-09-03T09:46:27Z</time>
      </trkpt>
      <trkpt lat="42.6872" lon="1.39601">
        <ele>2355</ele>
        <time>2017-09-03T09:47:17Z</time>
      </trkpt>
      <trkpt lat="42.68738" lon="1.39595">
        <ele>2356.3</ele>
        <time>2017-09-03T09:47:59Z</time>
      </trkpt>
      <trkpt lat="42.68755" lon="1.39605">
        <ele>2350.3</ele>
        <time>2017-09-03T09:48:20Z</time>
      </trkpt>
      <trkpt lat="42.68773" lon="1.39597">
        <ele>2344</ele>
        <time>2017-09-03T09:48:53Z</time>
      </trkpt>
      <trkpt lat="42.6879" lon="1.39589">
        <ele>2333.13</ele>
        <time>2017-09-03T09:49:49Z</time>
      </trkpt>
      <trkpt lat="42.68809" lon="1.39586">
        <ele>2332.14</ele>
        <time>2017-09-03T09:50:12Z</time>
      </trkpt>
      <trkpt lat="42.68827" lon="1.3959">
        <ele>2331.84</ele>
        <time>2017-09-03T09:50:32Z</time>
      </trkpt>
      <trkpt lat="42.68845" lon="1.396">
        <ele>2328.21</ele>
        <time>2017-09-03T09:51:13Z</time>
      </trkpt>
      <trkpt lat="42.68857" lon="1.3958">
        <ele>2331.93</ele>
        <time>2017-09-03T09:57:35Z</time>
      </trkpt>
      <trkpt lat="42.68871" lon="1.39563">
        <ele>2318.3</ele>
        <time>2017-09-03T09:58:01Z</time>
      </trkpt>
      <trkpt lat="42.68889" lon="1.39556">
        <ele>2314.75</ele>
        <time>2017-09-03T09:58:45Z</time>
      </trkpt>
      <trkpt lat="42.68909" lon="1.39555">
        <ele>2312.76</ele>
        <time>2017-09-03T09:59:16Z</time>
      </trkpt>
      <trkpt lat="42.68928" lon="1.39559">
        <ele>2300.33</ele>
        <time>2017-09-03T09:59:49Z</time>
      </trkpt>
      <trkpt lat="42.68944" lon="1.39547">
        <ele>2290.21</ele>
        <time>2017-09-03T10:00:23Z</time>
      </trkpt>
      <trkpt lat="42.68957" lon="1.3953">
        <ele>2284.6</ele>
        <time>2017-09-03T10:00:49Z</time>
      </trkpt>
      <trkpt lat="42.68976" lon="1.39533">
        <ele>2279.3</ele>
        <time>2017-09-03T10:01:11Z</time>
      </trkpt>
      <trkpt lat="42.68994" lon="1.39529">
        <ele>2271.21</ele>
        <time>2017-09-03T10:01:50Z</time>
      </trkpt>
      <trkpt lat="42.69006" lon="1.39512">
        <ele>2260.52</ele>
        <time>2017-09-03T10:02:15Z</time>
      </trkpt>
      <trkpt lat="42.69021" lon="1.39495">
        <ele>2257.3</ele>
        <time>2017-09-03T10:02:42Z</time>
      </trkpt>
      <trkpt lat="42.69038" lon="1.39506">
        <ele>2251.31</ele>
        <time>2017-09-03T10:03:07Z</time>
      </trkpt>
      <trkpt lat="42.69051" lon="1.39488">
        <ele>2247.52</ele>
        <time>2017-09-03T10:03:32Z</time>
      </trkpt>
      <trkpt lat="42.69067" lon="1.395">
        <ele>2242.48</ele>
        <time>2017-09-03T10:03:56Z</time>
      </trkpt>
      <trkpt lat="42.69084" lon="1.39511">
        <ele>2235.22</ele>
        <time>2017-09-03T10:04:38Z</time>
      </trkpt>
      <trkpt lat="42.69102" lon="1.39519">
        <ele>2233.3</ele>
        <time>2017-09-03T10:05:04Z</time>
      </trkpt>
      <trkpt lat="42.69108" lon="1.39542">
        <ele>2225.31</ele>
        <time>2017-09-03T10:05:24Z</time>
      </trkpt>
      <trkpt lat="42.69118" lon="1.39563">
        <ele>2224.21</ele>
        <time>2017-09-03T10:05:45Z</time>
      </trkpt>
      <trkpt lat="42.69127" lon="1.39586">
        <ele>2219.21</ele>
        <time>2017-09-03T10:06:03Z</time>
      </trkpt>
      <trkpt lat="42.69121" lon="1.39609">
        <ele>2228.13</ele>
        <time>2017-09-03T10:06:30Z</time>
      </trkpt>
      <trkpt lat="42.69117" lon="1.39634">
        <ele>2237.91</ele>
        <time>2017-09-03T10:07:00Z</time>
      </trkpt>
      <trkpt lat="42.69123" lon="1.39658">
        <ele>2229.53</ele>
        <time>2017-09-03T10:07:33Z</time>
      </trkpt>
      <trkpt lat="42.69129" lon="1.39682">
        <ele>2230.97</ele>
        <time>2017-09-03T10:51:40Z</time>
      </trkpt>
      <trkpt lat="42.69135" lon="1.39706">
        <ele>2234.2</ele>
        <time>2017-09-03T12:12:43Z</time>
      </trkpt>
      <trkpt lat="42.69141" lon="1.39729">
        <ele>2235.42</ele>
        <time>2017-09-03T12:13:09Z</time>
      </trkpt>
      <trkpt lat="42.69138" lon="1.39754">
        <ele>2231.31</ele>
        <time>2017-09-03T12:13:47Z</time>
      </trkpt>
      <trkpt lat="42.69137" lon="1.39779">
        <ele>2227.32</ele>
        <time>2017-09-03T12:14:07Z</time>
      </trkpt>
      <trkpt lat="42.69128" lon="1.398">
        <ele>2225.3</ele>
        <time>2017-09-03T12:14:34Z</time>
      </trkpt>
      <trkpt lat="42.69137" lon="1.39822">
        <ele>2219.24</ele>
        <time>2017-09-03T12:14:58Z</time>
      </trkpt>
      <trkpt lat="42.69144" lon="1.39846">
        <ele>2214.22</ele>
        <time>2017-09-03T12:15:19Z</time>
      </trkpt>
      <trkpt lat="42.69148" lon="1.3987">
        <ele>2209.33</ele>
        <time>2017-09-03T12:15:42Z</time>
      </trkpt>
      <trkpt lat="42.69149" lon="1.39896">
        <ele>2205.94</ele>
        <time>2017-09-03T12:16:05Z</time>
      </trkpt>
      <trkpt lat="42.6915" lon="1.39921">
        <ele>2201.3</ele>
        <time>2017-09-03T12:16:24Z</time>
      </trkpt>
      <trkpt lat="42.69147" lon="1.39945">
        <ele>2194.22</ele>
        <time>2017-09-03T12:16:44Z</time>
      </trkpt>
      <trkpt lat="42.69142" lon="1.3997">
        <ele>2191.5</ele>
        <time>2017-09-03T12:17:01Z</time>
      </trkpt>
      <trkpt lat="42.6914" lon="1.39995">
        <ele>2190.3</ele>
        <time>2017-09-03T12:17:20Z</time>
      </trkpt>
      <trkpt lat="42.69151" lon="1.40014">
        <ele>2176.54</ele>
        <time>2017-09-03T12:17:51Z</time>
      </trkpt>
      <trkpt lat="42.69162" lon="1.40035">
        <ele>2166.21</ele>
        <time>2017-09-03T12:18:39Z</time>
      </trkpt>
      <trkpt lat="42.69169" lon="1.40058">
        <ele>2162.21</ele>
        <time>2017-09-03T12:19:12Z</time>
      </trkpt>
      <trkpt lat="42.69179" lon="1.40079">
        <ele>2153.61</ele>
        <time>2017-09-03T12:19:33Z</time>
      </trkpt>
      <trkpt lat="42.69186" lon="1.40103">
        <ele>2145.33</ele>
        <time>2017-09-03T12:19:51Z</time>
      </trkpt>
      <trkpt lat="42.69194" lon="1.40126">
        <ele>2141.21</ele>
        <time>2017-09-03T12:20:10Z</time>
      </trkpt>
      <trkpt lat="42.69205" lon="1.40148">
        <ele>2130.21</ele>
        <time>2017-09-03T12:20:33Z</time>
      </trkpt>
      <trkpt lat="42.69215" lon="1.40169">
        <ele>2122.61</ele>
        <time>2017-09-03T12:20:50Z</time>
      </trkpt>
      <trkpt lat="42.69224" lon="1.40191">
        <ele>2115.31</ele>
        <time>2017-09-03T12:21:07Z</time>
      </trkpt>
      <trkpt lat="42.6924" lon="1.40203">
        <ele>2104.3</ele>
        <time>2017-09-03T12:21:44Z</time>
      </trkpt>
      <trkpt lat="42.69254" lon="1.40219">
        <ele>2101.22</ele>
        <time>2017-09-03T12:21:58Z</time>
      </trkpt>
      <trkpt lat="42.69267" lon="1.40236">
        <ele>2096.21</ele>
        <time>2017-09-03T12:22:13Z</time>
      </trkpt>
      <trkpt lat="42.69281" lon="1.40253">
        <ele>2096.59</ele>
        <time>2017-09-03T12:22:37Z</time>
      </trkpt>
      <trkpt lat="42.6927" lon="1.40273">
        <ele>2089.24</ele>
        <time>2017-09-03T12:22:53Z</time>
      </trkpt>
      <trkpt lat="42.69289" lon="1.40279">
        <ele>2079.93</ele>
        <time>2017-09-03T12:23:22Z</time>
      </trkpt>
      <trkpt lat="42.69306" lon="1.40289">
        <ele>2072.99</ele>
        <time>2017-09-03T12:23:48Z</time>
      </trkpt>
      <trkpt lat="42.69314" lon="1.40311">
        <ele>2062.52</ele>
        <time>2017-09-03T12:24:05Z</time>
      </trkpt>
      <trkpt lat="42.69321" lon="1.40334">
        <ele>2060.85</ele>
        <time>2017-09-03T12:24:29Z</time>
      </trkpt>
      <trkpt lat="42.69323" lon="1.4036">
        <ele>2059.48</ele>
        <time>2017-09-03T12:24:50Z</time>
      </trkpt>
      <trkpt lat="42.69326" lon="1.40384">
        <ele>2053.25</ele>
        <time>2017-09-03T12:25:07Z</time>
      </trkpt>
      <trkpt lat="42.69338" lon="1.40403">
        <ele>2049.2</ele>
        <time>2017-09-03T12:25:31Z</time>
      </trkpt>
      <trkpt lat="42.69347" lon="1.40424">
        <ele>2045.84</ele>
        <time>2017-09-03T12:25:54Z</time>
      </trkpt>
      <trkpt lat="42.69361" lon="1.40441">
        <ele>2033.24</ele>
        <time>2017-09-03T12:26:17Z</time>
      </trkpt>
      <trkpt lat="42.69376" lon="1.40455">
        <ele>2033.21</ele>
        <time>2017-09-03T12:26:31Z</time>
      </trkpt>
      <trkpt lat="42.69387" lon="1.40477">
        <ele>2033.23</ele>
        <time>2017-09-03T12:26:47Z</time>
      </trkpt>
      <trkpt lat="42.69402" lon="1.40492">
        <ele>2032.2</ele>
        <time>2017-09-03T12:27:05Z</time>
      </trkpt>
      <trkpt lat="42.69418" lon="1.40505">
        <ele>2033.11</ele>
        <time>2017-09-03T12:27:19Z</time>
      </trkpt>
      <trkpt lat="42.69436" lon="1.40515">
        <ele>2037.24</ele>
        <time>2017-09-03T12:27:34Z</time>
      </trkpt>
      <trkpt lat="42.69454" lon="1.4052">
        <ele>2031.24</ele>
        <time>2017-09-03T12:27:55Z</time>
      </trkpt>
      <trkpt lat="42.69471" lon="1.40531">
        <ele>2028.22</ele>
        <time>2017-09-03T12:28:18Z</time>
      </trkpt>
      <trkpt lat="42.69489" lon="1.40537">
        <ele>2014.25</ele>
        <time>2017-09-03T12:28:50Z</time>
      </trkpt>
      <trkpt lat="42.69506" lon="1.40544">
        <ele>2006.6</ele>
        <time>2017-09-03T12:29:17Z</time>
      </trkpt>
      <trkpt lat="42.69525" lon="1.4054">
        <ele>2003.22</ele>
        <time>2017-09-03T12:29:45Z</time>
      </trkpt>
      <trkpt lat="42.69543" lon="1.40539">
        <ele>1995.51</ele>
        <time>2017-09-03T12:30:02Z</time>
      </trkpt>
      <trkpt lat="42.69561" lon="1.40547">
        <ele>1981.03</ele>
        <time>2017-09-03T12:30:37Z</time>
      </trkpt>
      <trkpt lat="42.69577" lon="1.40536">
        <ele>1979.51</ele>
        <time>2017-09-03T12:31:40Z</time>
      </trkpt>
      <trkpt lat="42.69593" lon="1.40549">
        <ele>1971.99</ele>
        <time>2017-09-03T12:32:26Z</time>
      </trkpt>
      <trkpt lat="42.69606" lon="1.40532">
        <ele>1966.29</ele>
        <time>2017-09-03T12:33:19Z</time>
      </trkpt>
      <trkpt lat="42.69622" lon="1.40545">
        <ele>1953.34</ele>
        <time>2017-09-03T12:33:58Z</time>
      </trkpt>
      <trkpt lat="42.69638" lon="1.40558">
        <ele>1943.92</ele>
        <time>2017-09-03T12:34:25Z</time>
      </trkpt>
      <trkpt lat="42.6965" lon="1.40576">
        <ele>1943.91</ele>
        <time>2017-09-03T12:34:58Z</time>
      </trkpt>
      <trkpt lat="42.69666" lon="1.40591">
        <ele>1937.29</ele>
        <time>2017-09-03T12:35:31Z</time>
      </trkpt>
      <trkpt lat="42.69685" lon="1.40596">
        <ele>1932.22</ele>
        <time>2017-09-03T12:35:53Z</time>
      </trkpt>
      <trkpt lat="42.69702" lon="1.40587">
        <ele>1933.22</ele>
        <time>2017-09-03T12:36:14Z</time>
      </trkpt>
      <trkpt lat="42.69699" lon="1.40562">
        <ele>1933.52</ele>
        <time>2017-09-03T12:37:55Z</time>
      </trkpt>
      <trkpt lat="42.69703" lon="1.40538">
        <ele>1931.21</ele>
        <time>2017-09-03T12:38:23Z</time>
      </trkpt>
      <trkpt lat="42.69694" lon="1.40516">
        <ele>1917.04</ele>
        <time>2017-09-03T12:39:12Z</time>
      </trkpt>
      <trkpt lat="42.69707" lon="1.40497">
        <ele>1914.29</ele>
        <time>2017-09-03T12:39:32Z</time>
      </trkpt>
      <trkpt lat="42.69724" lon="1.40485">
        <ele>1916.24</ele>
        <time>2017-09-03T12:40:03Z</time>
      </trkpt>
      <trkpt lat="42.69737" lon="1.40467">
        <ele>1913.21</ele>
        <time>2017-09-03T12:40:24Z</time>
      </trkpt>
      <trkpt lat="42.69757" lon="1.40466">
        <ele>1903.51</ele>
        <time>2017-09-03T12:41:24Z</time>
      </trkpt>
      <trkpt lat="42.69774" lon="1.40472">
        <ele>1894.5</ele>
        <time>2017-09-03T12:42:10Z</time>
      </trkpt>
      <trkpt lat="42.69792" lon="1.40478">
        <ele>1883.12</ele>
        <time>2017-09-03T12:42:56Z</time>
      </trkpt>
      <trkpt lat="42.6981" lon="1.4048">
        <ele>1872.15</ele>
        <time>2017-09-03T12:43:41Z</time>
      </trkpt>
      <trkpt lat="42.69828" lon="1.40486">
        <ele>1864.8</ele>
        <time>2017-09-03T12:44:27Z</time>
      </trkpt>
      <trkpt lat="42.69839" lon="1.40505">
        <ele>1859.52</ele>
        <time>2017-09-03T12:44:52Z</time>
      </trkpt>
      <trkpt lat="42.69851" lon="1.40524">
        <ele>1854.81</ele>
        <time>2017-09-03T12:45:31Z</time>
      </trkpt>
      <trkpt lat="42.6987" lon="1.40525">
        <ele>1849.18</ele>
        <time>2017-09-03T12:46:15Z</time>
      </trkpt>
      <trkpt lat="42.69887" lon="1.40528">
        <ele>1837.23</ele>
        <time>2017-09-03T12:47:21Z</time>
      </trkpt>
      <trkpt lat="42.69901" lon="1.40544">
        <ele>1830.3</ele>
        <time>2017-09-03T12:48:02Z</time>
      </trkpt>
      <trkpt lat="42.69916" lon="1.40558">
        <ele>1824.21</ele>
        <time>2017-09-03T12:48:32Z</time>
      </trkpt>
      <trkpt lat="42.69931" lon="1.40572">
        <ele>1813.29</ele>
        <time>2017-09-03T12:49:04Z</time>
      </trkpt>
      <trkpt lat="42.69935" lon="1.40597">
        <ele>1812.93</ele>
        <time>2017-09-03T12:50:24Z</time>
      </trkpt>
      <trkpt lat="42.69951" lon="1.40607">
        <ele>1801.12</ele>
        <time>2017-09-03T12:51:06Z</time>
      </trkpt>
      <trkpt lat="42.69967" lon="1.40619">
        <ele>1800.59</ele>
        <time>2017-09-03T12:51:32Z</time>
      </trkpt>
      <trkpt lat="42.69984" lon="1.40628">
        <ele>1798.2</ele>
        <time>2017-09-03T12:52:01Z</time>
      </trkpt>
      <trkpt lat="42.70001" lon="1.4064">
        <ele>1800.7</ele>
        <time>2017-09-03T12:52:41Z</time>
      </trkpt>
      <trkpt lat="42.70018" lon="1.40647">
        <ele>1798.91</ele>
        <time>2017-09-03T12:53:14Z</time>
      </trkpt>
      <trkpt lat="42.70031" lon="1.40628">
        <ele>1791.24</ele>
        <time>2017-09-03T12:54:21Z</time>
      </trkpt>
      <trkpt lat="42.70026" lon="1.40603">
        <ele>1783.51</ele>
        <time>2017-09-03T12:55:02Z</time>
      </trkpt>
      <trkpt lat="42.70044" lon="1.40603">
        <ele>1777.3</ele>
        <time>2017-09-03T12:55:37Z</time>
      </trkpt>
      <trkpt lat="42.70062" lon="1.40611">
        <ele>1773.22</ele>
        <time>2017-09-03T12:56:18Z</time>
      </trkpt>
      <trkpt lat="42.70075" lon="1.4063">
        <ele>1761.32</ele>
        <time>2017-09-03T12:56:49Z</time>
      </trkpt>
      <trkpt lat="42.70093" lon="1.40638">
        <ele>1757.58</ele>
        <time>2017-09-03T12:57:35Z</time>
      </trkpt>
      <trkpt lat="42.70108" lon="1.40651">
        <ele>1755.94</ele>
        <time>2017-09-03T12:58:09Z</time>
      </trkpt>
      <trkpt lat="42.70124" lon="1.40663">
        <ele>1750.2</ele>
        <time>2017-09-03T12:58:54Z</time>
      </trkpt>
      <trkpt lat="42.70141" lon="1.40656">
        <ele>1737.33</ele>
        <time>2017-09-03T12:59:26Z</time>
      </trkpt>
      <trkpt lat="42.70159" lon="1.40655">
        <ele>1729.24</ele>
        <time>2017-09-03T13:00:03Z</time>
      </trkpt>
      <trkpt lat="42.70178" lon="1.40656">
        <ele>1720.5</ele>
        <time>2017-09-03T13:00:34Z</time>
      </trkpt>
      <trkpt lat="42.70196" lon="1.40654">
        <ele>1716.26</ele>
        <time>2017-09-03T13:00:57Z</time>
      </trkpt>
      <trkpt lat="42.70214" lon="1.40647">
        <ele>1708.53</ele>
        <time>2017-09-03T13:01:20Z</time>
      </trkpt>
      <trkpt lat="42.70225" lon="1.40626">
        <ele>1689.37</ele>
        <time>2017-09-03T13:01:53Z</time>
      </trkpt>
      <trkpt lat="42.70229" lon="1.40602">
        <ele>1687.22</ele>
        <time>2017-09-03T13:04:07Z</time>
      </trkpt>
      <trkpt lat="42.70233" lon="1.40577">
        <ele>1681.54</ele>
        <time>2017-09-03T13:04:27Z</time>
      </trkpt>
      <trkpt lat="42.70248" lon="1.40562">
        <ele>1674.64</ele>
        <time>2017-09-03T13:05:03Z</time>
      </trkpt>
      <trkpt lat="42.70262" lon="1.4058">
        <ele>1669.21</ele>
        <time>2017-09-03T13:05:27Z</time>
      </trkpt>
      <trkpt lat="42.70281" lon="1.4058">
        <ele>1664.35</ele>
        <time>2017-09-03T13:05:54Z</time>
      </trkpt>
      <trkpt lat="42.70298" lon="1.40584">
        <ele>1663.3</ele>
        <time>2017-09-03T13:06:16Z</time>
      </trkpt>
      <trkpt lat="42.70316" lon="1.40579">
        <ele>1655.33</ele>
        <time>2017-09-03T13:06:50Z</time>
      </trkpt>
      <trkpt lat="42.70334" lon="1.40583">
        <ele>1654.12</ele>
        <time>2017-09-03T13:07:16Z</time>
      </trkpt>
      <trkpt lat="42.70352" lon="1.40588">
        <ele>1651.21</ele>
        <time>2017-09-03T13:07:49Z</time>
      </trkpt>
      <trkpt lat="42.70367" lon="1.40602">
        <ele>1643.19</ele>
        <time>2017-09-03T13:08:17Z</time>
      </trkpt>
      <trkpt lat="42.70385" lon="1.40609">
        <ele>1637.9</ele>
        <time>2017-09-03T13:08:50Z</time>
      </trkpt>
      <trkpt lat="42.704" lon="1.40621">
        <ele>1628.12</ele>
        <time>2017-09-03T13:09:39Z</time>
      </trkpt>
      <trkpt lat="42.70417" lon="1.40633">
        <ele>1617.18</ele>
        <time>2017-09-03T13:10:12Z</time>
      </trkpt>
      <trkpt lat="42.7043" lon="1.40651">
        <ele>1614.51</ele>
        <time>2017-09-03T13:10:46Z</time>
      </trkpt>
      <trkpt lat="42.70449" lon="1.40657">
        <ele>1604.21</ele>
        <time>2017-09-03T13:11:41Z</time>
      </trkpt>
      <trkpt lat="42.70463" lon="1.40641">
        <ele>1597.21</ele>
        <time>2017-09-03T13:12:12Z</time>
      </trkpt>
      <trkpt lat="42.70481" lon="1.40649">
        <ele>1582.94</ele>
        <time>2017-09-03T13:13:12Z</time>
      </trkpt>
      <trkpt lat="42.70497" lon="1.4066">
        <ele>1581.27</ele>
        <time>2017-09-03T13:13:39Z</time>
      </trkpt>
      <trkpt lat="42.70514" lon="1.40647">
        <ele>1574.22</ele>
        <time>2017-09-03T13:14:35Z</time>
      </trkpt>
      <trkpt lat="42.70524" lon="1.40669">
        <ele>1566.23</ele>
        <time>2017-09-03T13:15:00Z</time>
      </trkpt>
      <trkpt lat="42.70529" lon="1.40693">
        <ele>1550.63</ele>
        <time>2017-09-03T13:15:47Z</time>
      </trkpt>
      <trkpt lat="42.70536" lon="1.40716">
        <ele>1542.23</ele>
        <time>2017-09-03T13:16:08Z</time>
      </trkpt>
      <trkpt lat="42.70548" lon="1.40737">
        <ele>1540.62</ele>
        <time>2017-09-03T13:16:44Z</time>
      </trkpt>
      <trkpt lat="42.7056" lon="1.40755">
        <ele>1531.22</ele>
        <time>2017-09-03T13:17:15Z</time>
      </trkpt>
      <trkpt lat="42.70567" lon="1.40778">
        <ele>1520.8</ele>
        <time>2017-09-03T13:17:41Z</time>
      </trkpt>
      <trkpt lat="42.70567" lon="1.40803">
        <ele>1518.31</ele>
        <time>2017-09-03T13:18:00Z</time>
      </trkpt>
      <trkpt lat="42.70586" lon="1.40805">
        <ele>1516.19</ele>
        <time>2017-09-03T13:18:28Z</time>
      </trkpt>
      <trkpt lat="42.70601" lon="1.4079">
        <ele>1505.92</ele>
        <time>2017-09-03T13:18:57Z</time>
      </trkpt>
      <trkpt lat="42.70619" lon="1.40794">
        <ele>1507.88</ele>
        <time>2017-09-03T13:19:20Z</time>
      </trkpt>
      <trkpt lat="42.70632" lon="1.4081">
        <ele>1487.2</ele>
        <time>2017-09-03T13:19:58Z</time>
      </trkpt>
      <trkpt lat="42.70643" lon="1.4083">
        <ele>1481.31</ele>
        <time>2017-09-03T13:21:27Z</time>
      </trkpt>
      <trkpt lat="42.70646" lon="1.40854">
        <ele>1477.3</ele>
        <time>2017-09-03T13:21:51Z</time>
      </trkpt>
      <trkpt lat="42.70646" lon="1.40879">
        <ele>1468.3</ele>
        <time>2017-09-03T13:22:15Z</time>
      </trkpt>
      <trkpt lat="42.70648" lon="1.40903">
        <ele>1460.75</ele>
        <time>2017-09-03T13:22:41Z</time>
      </trkpt>
      <trkpt lat="42.70651" lon="1.40929">
        <ele>1464.19</ele>
        <time>2017-09-03T13:23:04Z</time>
      </trkpt>
      <trkpt lat="42.70654" lon="1.40953">
        <ele>1465.87</ele>
        <time>2017-09-03T13:23:22Z</time>
      </trkpt>
      <trkpt lat="42.70654" lon="1.40979">
        <ele>1464.6</ele>
        <time>2017-09-03T13:23:50Z</time>
      </trkpt>
      <trkpt lat="42.70655" lon="1.41006">
        <ele>1464.91</ele>
        <time>2017-09-03T13:24:11Z</time>
      </trkpt>
      <trkpt lat="42.70658" lon="1.4103">
        <ele>1453.28</ele>
        <time>2017-09-03T13:24:32Z</time>
      </trkpt>
      <trkpt lat="42.70677" lon="1.41028">
        <ele>1456.49</ele>
        <time>2017-09-03T13:25:24Z</time>
      </trkpt>
      <trkpt lat="42.7068" lon="1.41052">
        <ele>1448.56</ele>
        <time>2017-09-03T13:25:47Z</time>
      </trkpt>
      <trkpt lat="42.70688" lon="1.41076">
        <ele>1436.88</ele>
        <time>2017-09-03T13:26:15Z</time>
      </trkpt>
      <trkpt lat="42.70692" lon="1.411">
        <ele>1429.3</ele>
        <time>2017-09-03T13:26:38Z</time>
      </trkpt>
      <trkpt lat="42.70697" lon="1.41124">
        <ele>1421.91</ele>
        <time>2017-09-03T13:26:59Z</time>
      </trkpt>
      <trkpt lat="42.707" lon="1.4115">
        <ele>1423.5</ele>
        <time>2017-09-03T13:27:26Z</time>
      </trkpt>
      <trkpt lat="42.70701" lon="1.41175">
        <ele>1411.45</ele>
        <time>2017-09-03T13:27:48Z</time>
      </trkpt>
      <trkpt lat="42.70696" lon="1.41199">
        <ele>1413</ele>
        <time>2017-09-03T13:28:10Z</time>
      </trkpt>
      <trkpt lat="42.70691" lon="1.41224">
        <ele>1401.31</ele>
        <time>2017-09-03T13:28:36Z</time>
      </trkpt>
      <trkpt lat="42.70685" lon="1.41248">
        <ele>1395.51</ele>
        <time>2017-09-03T13:28:55Z</time>
      </trkpt>
      <trkpt lat="42.70684" lon="1.41275">
        <ele>1394.83</ele>
        <time>2017-09-03T13:29:10Z</time>
      </trkpt>
      <trkpt lat="42.7068" lon="1.41299">
        <ele>1397.21</ele>
        <time>2017-09-03T13:29:30Z</time>
      </trkpt>
      <trkpt lat="42.7068" lon="1.41325">
        <ele>1391.01</ele>
        <time>2017-09-03T13:29:48Z</time>
      </trkpt>
      <trkpt lat="42.70685" lon="1.41351">
        <ele>1394.3</ele>
        <time>2017-09-03T13:30:02Z</time>
      </trkpt>
      <trkpt lat="42.70683" lon="1.41375">
        <ele>1392.74</ele>
        <time>2017-09-03T13:30:20Z</time>
      </trkpt>
      <trkpt lat="42.70678" lon="1.41399">
        <ele>1384.22</ele>
        <time>2017-09-03T13:30:38Z</time>
      </trkpt>
      <trkpt lat="42.70673" lon="1.41423">
        <ele>1386.42</ele>
        <time>2017-09-03T13:30:57Z</time>
      </trkpt>
      <trkpt lat="42.70672" lon="1.41448">
        <ele>1386.84</ele>
        <time>2017-09-03T13:31:15Z</time>
      </trkpt>
      <trkpt lat="42.70673" lon="1.41473">
        <ele>1385.24</ele>
        <time>2017-09-03T13:31:30Z</time>
      </trkpt>
      <trkpt lat="42.70678" lon="1.41496">
        <ele>1383.41</ele>
        <time>2017-09-03T13:31:49Z</time>
      </trkpt>
      <trkpt lat="42.70672" lon="1.41521">
        <ele>1386.28</ele>
        <time>2017-09-03T13:32:04Z</time>
      </trkpt>
      <trkpt lat="42.70658" lon="1.41538">
        <ele>1379.63</ele>
        <time>2017-09-03T13:33:40Z</time>
      </trkpt>
      <trkpt lat="42.70663" lon="1.41562">
        <ele>1370.1</ele>
        <time>2017-09-03T13:34:22Z</time>
      </trkpt>
      <trkpt lat="42.70674" lon="1.41582">
        <ele>1369.48</ele>
        <time>2017-09-03T13:35:01Z</time>
      </trkpt>
      <trkpt lat="42.70683" lon="1.41607">
        <ele>1366.55</ele>
        <time>2017-09-03T13:35:22Z</time>
      </trkpt>
      <trkpt lat="42.70687" lon="1.41632">
        <ele>1355.27</ele>
        <time>2017-09-03T13:35:47Z</time>
      </trkpt>
      <trkpt lat="42.70691" lon="1.41656">
        <ele>1357.17</ele>
        <time>2017-09-03T13:36:16Z</time>
      </trkpt>
      <trkpt lat="42.70699" lon="1.41679">
        <ele>1352.5</ele>
        <time>2017-09-03T13:36:45Z</time>
      </trkpt>
      <trkpt lat="42.70706" lon="1.41703">
        <ele>1346.22</ele>
        <time>2017-09-03T13:37:04Z</time>
      </trkpt>
      <trkpt lat="42.70718" lon="1.41683">
        <ele>1336.29</ele>
        <time>2017-09-03T13:38:09Z</time>
      </trkpt>
      <trkpt lat="42.70731" lon="1.41667">
        <ele>1330.3</ele>
        <time>2017-09-03T13:38:31Z</time>
      </trkpt>
      <trkpt lat="42.70744" lon="1.41648">
        <ele>1321.88</ele>
        <time>2017-09-03T13:39:12Z</time>
      </trkpt>
      <trkpt lat="42.70758" lon="1.41634">
        <ele>1317.27</ele>
        <time>2017-09-03T13:39:37Z</time>
      </trkpt>
      <trkpt lat="42.70772" lon="1.41616">
        <ele>1300.23</ele>
        <time>2017-09-03T13:40:25Z</time>
      </trkpt>
      <trkpt lat="42.70789" lon="1.41612">
        <ele>1286.2</ele>
        <time>2017-09-03T13:41:09Z</time>
      </trkpt>
      <trkpt lat="42.70805" lon="1.41597">
        <ele>1280.11</ele>
        <time>2017-09-03T13:42:02Z</time>
      </trkpt>
      <trkpt lat="42.7082" lon="1.41583">
        <ele>1274</ele>
        <time>2017-09-03T13:42:34Z</time>
      </trkpt>
      <trkpt lat="42.70824" lon="1.41558">
        <ele>1260.5</ele>
        <time>2017-09-03T13:43:25Z</time>
      </trkpt>
      <trkpt lat="42.70832" lon="1.41536">
        <ele>1253.88</ele>
        <time>2017-09-03T13:43:46Z</time>
      </trkpt>
      <trkpt lat="42.7085" lon="1.41531">
        <ele>1253.73</ele>
        <time>2017-09-03T13:44:14Z</time>
      </trkpt>
      <trkpt lat="42.70868" lon="1.41525">
        <ele>1247.01</ele>
        <time>2017-09-03T13:44:42Z</time>
      </trkpt>
      <trkpt lat="42.70886" lon="1.4153">
        <ele>1242.29</ele>
        <time>2017-09-03T13:45:07Z</time>
      </trkpt>
      <trkpt lat="42.70896" lon="1.41551">
        <ele>1219.24</ele>
        <time>2017-09-03T13:46:15Z</time>
      </trkpt>
      <trkpt lat="42.70886" lon="1.41573">
        <ele>1213.99</ele>
        <time>2017-09-03T13:46:53Z</time>
      </trkpt>
      <trkpt lat="42.7089" lon="1.41599">
        <ele>1215.18</ele>
        <time>2017-09-03T13:47:15Z</time>
      </trkpt>
      <trkpt lat="42.70895" lon="1.41623">
        <ele>1218.72</ele>
        <time>2017-09-03T13:47:35Z</time>
      </trkpt>
      <trkpt lat="42.70896" lon="1.41648">
        <ele>1222.99</ele>
        <time>2017-09-03T13:47:56Z</time>
      </trkpt>
      <trkpt lat="42.709" lon="1.41673">
        <ele>1216.54</ele>
        <time>2017-09-03T13:48:14Z</time>
      </trkpt>
      <trkpt lat="42.70899" lon="1.41698">
        <ele>1212.62</ele>
        <time>2017-09-03T13:48:38Z</time>
      </trkpt>
      <trkpt lat="42.70905" lon="1.41723">
        <ele>1203.24</ele>
        <time>2017-09-03T13:48:55Z</time>
      </trkpt>
      <trkpt lat="42.70915" lon="1.41745">
        <ele>1195.06</ele>
        <time>2017-09-03T13:49:15Z</time>
      </trkpt>
      <trkpt lat="42.70923" lon="1.41767">
        <ele>1200.2</ele>
        <time>2017-09-03T13:49:33Z</time>
      </trkpt>
      <trkpt lat="42.7093" lon="1.41791">
        <ele>1205.1</ele>
        <time>2017-09-03T13:49:49Z</time>
      </trkpt>
      <trkpt lat="42.70929" lon="1.41816">
        <ele>1199.96</ele>
        <time>2017-09-03T13:50:09Z</time>
      </trkpt>
      <trkpt lat="42.70934" lon="1.41841">
        <ele>1202.5</ele>
        <time>2017-09-03T13:50:25Z</time>
      </trkpt>
      <trkpt lat="42.70936" lon="1.41867">
        <ele>1201.76</ele>
        <time>2017-09-03T13:51:00Z</time>
      </trkpt>
      <trkpt lat="42.70942" lon="1.4189">
        <ele>1197.11</ele>
        <time>2017-09-03T13:54:55Z</time>
      </trkpt>
      <trkpt lat="42.70943" lon="1.41915">
        <ele>1198.91</ele>
        <time>2017-09-03T13:55:16Z</time>
      </trkpt>
      <trkpt lat="42.70942" lon="1.4194">
        <ele>1199.93</ele>
        <time>2017-09-03T13:55:36Z</time>
      </trkpt>
      <trkpt lat="42.70935" lon="1.41963">
        <ele>1200.81</ele>
        <time>2017-09-03T13:55:55Z</time>
      </trkpt>
      <trkpt lat="42.70928" lon="1.41987">
        <ele>1200.57</ele>
        <time>2017-09-03T13:56:14Z</time>
      </trkpt>
      <trkpt lat="42.70928" lon="1.42013">
        <ele>1198.4</ele>
        <time>2017-09-03T13:56:37Z</time>
      </trkpt>
      <trkpt lat="42.70923" lon="1.42038">
        <ele>1195.58</ele>
        <time>2017-09-03T13:56:52Z</time>
      </trkpt>
      <trkpt lat="42.70924" lon="1.42063">
        <ele>1194.91</ele>
        <time>2017-09-03T13:57:09Z</time>
      </trkpt>
      <trkpt lat="42.70927" lon="1.42087">
        <ele>1191.32</ele>
        <time>2017-09-03T13:57:30Z</time>
      </trkpt>
      <trkpt lat="42.70933" lon="1.42111">
        <ele>1184.51</ele>
        <time>2017-09-03T13:58:18Z</time>
      </trkpt>
      <trkpt lat="42.70935" lon="1.42137">
        <ele>1184.6</ele>
        <time>2017-09-03T13:58:37Z</time>
      </trkpt>
      <trkpt lat="42.70941" lon="1.42161">
        <ele>1183.3</ele>
        <time>2017-09-03T13:59:00Z</time>
      </trkpt>
      <trkpt lat="42.70949" lon="1.42185">
        <ele>1176.52</ele>
        <time>2017-09-03T13:59:19Z</time>
      </trkpt>
      <trkpt lat="42.70949" lon="1.4221">
        <ele>1169.31</ele>
        <time>2017-09-03T13:59:38Z</time>
      </trkpt>
      <trkpt lat="42.70954" lon="1.42234">
        <ele>1169.23</ele>
        <time>2017-09-03T13:59:55Z</time>
      </trkpt>
      <trkpt lat="42.70961" lon="1.42258">
        <ele>1167.26</ele>
        <time>2017-09-03T14:00:14Z</time>
      </trkpt>
      <trkpt lat="42.70961" lon="1.42283">
        <ele>1173.12</ele>
        <time>2017-09-03T14:00:30Z</time>
      </trkpt>
      <trkpt lat="42.70963" lon="1.42308">
        <ele>1172.54</ele>
        <time>2017-09-03T14:00:47Z</time>
      </trkpt>
      <trkpt lat="42.70969" lon="1.42331">
        <ele>1175.81</ele>
        <time>2017-09-03T14:01:03Z</time>
      </trkpt>
      <trkpt lat="42.7098" lon="1.42351">
        <ele>1178.82</ele>
        <time>2017-09-03T14:01:18Z</time>
      </trkpt>
      <trkpt lat="42.70987" lon="1.42375">
        <ele>1175.42</ele>
        <time>2017-09-03T14:01:36Z</time>
      </trkpt>
      <trkpt lat="42.70993" lon="1.424">
        <ele>1177.02</ele>
        <time>2017-09-03T14:01:50Z</time>
      </trkpt>
      <trkpt lat="42.70998" lon="1.42425">
        <ele>1180.44</ele>
        <time>2017-09-03T14:02:07Z</time>
      </trkpt>
      <trkpt lat="42.71006" lon="1.42447">
        <ele>1177.62</ele>
        <time>2017-09-03T14:02:27Z</time>
      </trkpt>
      <trkpt lat="42.71014" lon="1.4247">
        <ele>1175.27</ele>
        <time>2017-09-03T14:02:41Z</time>
      </trkpt>
      <trkpt lat="42.71025" lon="1.42491">
        <ele>1179.3</ele>
        <time>2017-09-03T14:06:13Z</time>
      </trkpt>
      <trkpt lat="42.71041" lon="1.42503">
        <ele>1179.51</ele>
        <time>2017-09-03T14:06:40Z</time>
      </trkpt>
      <trkpt lat="42.71043" lon="1.42527">
        <ele>1163.32</ele>
        <time>2017-09-03T14:07:16Z</time>
      </trkpt>
      <trkpt lat="42.71052" lon="1.4255">
        <ele>1167.84</ele>
        <time>2017-09-03T14:07:31Z</time>
      </trkpt>
      <trkpt lat="42.71055" lon="1.42577">
        <ele>1170.9</ele>
        <time>2017-09-03T14:07:51Z</time>
      </trkpt>
      <trkpt lat="42.71059" lon="1.42603">
        <ele>1175.08</ele>
        <time>2017-09-03T14:08:06Z</time>
      </trkpt>
      <trkpt lat="42.71061" lon="1.42628">
        <ele>1166.52</ele>
        <time>2017-09-03T14:08:29Z</time>
      </trkpt>
      <trkpt lat="42.71064" lon="1.42652">
        <ele>1165.82</ele>
        <time>2017-09-03T14:08:40Z</time>
      </trkpt>
      <trkpt lat="42.71069" lon="1.42676">
        <ele>1169.28</ele>
        <time>2017-09-03T14:08:54Z</time>
      </trkpt>
      <trkpt lat="42.71072" lon="1.427">
        <ele>1167.94</ele>
        <time>2017-09-03T14:09:09Z</time>
      </trkpt>
      <trkpt lat="42.71075" lon="1.42726">
        <ele>1167.54</ele>
        <time>2017-09-03T14:09:27Z</time>
      </trkpt>
      <trkpt lat="42.71081" lon="1.42749">
        <ele>1160.45</ele>
        <time>2017-09-03T14:09:44Z</time>
      </trkpt>
      <trkpt lat="42.71085" lon="1.42774">
        <ele>1150.43</ele>
        <time>2017-09-03T14:10:01Z</time>
      </trkpt>
      <trkpt lat="42.71086" lon="1.428">
        <ele>1145.39</ele>
        <time>2017-09-03T14:10:19Z</time>
      </trkpt>
      <trkpt lat="42.71093" lon="1.42824">
        <ele>1141.52</ele>
        <time>2017-09-03T14:10:35Z</time>
      </trkpt>
      <trkpt lat="42.71097" lon="1.42848">
        <ele>1141.14</ele>
        <time>2017-09-03T14:10:51Z</time>
      </trkpt>
      <trkpt lat="42.71106" lon="1.42871">
        <ele>1148.34</ele>
        <time>2017-09-03T14:11:04Z</time>
      </trkpt>
      <trkpt lat="42.7111" lon="1.42895">
        <ele>1155.08</ele>
        <time>2017-09-03T14:11:20Z</time>
      </trkpt>
      <trkpt lat="42.71118" lon="1.42918">
        <ele>1150.49</ele>
        <time>2017-09-03T14:11:37Z</time>
      </trkpt>
      <trkpt lat="42.71128" lon="1.4294">
        <ele>1143.44</ele>
        <time>2017-09-03T14:11:53Z</time>
      </trkpt>
      <trkpt lat="42.71136" lon="1.42961">
        <ele>1143.63</ele>
        <time>2017-09-03T14:12:07Z</time>
      </trkpt>
      <trkpt lat="42.71145" lon="1.42985">
        <ele>1152.46</ele>
        <time>2017-09-03T14:12:20Z</time>
      </trkpt>
      <trkpt lat="42.71151" lon="1.43008">
        <ele>1158.19</ele>
        <time>2017-09-03T14:12:35Z</time>
      </trkpt>
      <trkpt lat="42.71161" lon="1.4303">
        <ele>1155.9</ele>
        <time>2017-09-03T14:12:53Z</time>
      </trkpt>
      <trkpt lat="42.71176" lon="1.43046">
        <ele>1153.83</ele>
        <time>2017-09-03T14:13:09Z</time>
      </trkpt>
      <trkpt lat="42.7119" lon="1.43063">
        <ele>1153.5</ele>
        <time>2017-09-03T14:13:28Z</time>
      </trkpt>
      <trkpt lat="42.71202" lon="1.43082">
        <ele>1151.08</ele>
        <time>2017-09-03T14:13:42Z</time>
      </trkpt>
      <trkpt lat="42.71215" lon="1.43099">
        <ele>1152.5</ele>
        <time>2017-09-03T14:14:00Z</time>
      </trkpt>
      <trkpt lat="42.71233" lon="1.43109">
        <ele>1151.23</ele>
        <time>2017-09-03T14:14:15Z</time>
      </trkpt>
      <trkpt lat="42.71249" lon="1.4312">
        <ele>1148.02</ele>
        <time>2017-09-03T14:14:31Z</time>
      </trkpt>
      <trkpt lat="42.71265" lon="1.43133">
        <ele>1142.33</ele>
        <time>2017-09-03T14:14:47Z</time>
      </trkpt>
      <trkpt lat="42.71274" lon="1.43155">
        <ele>1143.21</ele>
        <time>2017-09-03T14:15:02Z</time>
      </trkpt>
      <trkpt lat="42.71287" lon="1.43172">
        <ele>1141.98</ele>
        <time>2017-09-03T14:15:19Z</time>
      </trkpt>
      <trkpt lat="42.71299" lon="1.43191">
        <ele>1133.75</ele>
        <time>2017-09-03T14:15:35Z</time>
      </trkpt>
      <trkpt lat="42.71304" lon="1.43215">
        <ele>1131.25</ele>
        <time>2017-09-03T14:15:51Z</time>
      </trkpt>
      <trkpt lat="42.71313" lon="1.43237">
        <ele>1121.3</ele>
        <time>2017-09-03T14:16:09Z</time>
      </trkpt>
      <trkpt lat="42.71317" lon="1.43261">
        <ele>1123.14</ele>
        <time>2017-09-03T14:16:26Z</time>
      </trkpt>
      <trkpt lat="42.71319" lon="1.43285">
        <ele>1121.55</ele>
        <time>2017-09-03T14:16:42Z</time>
      </trkpt>
      <trkpt lat="42.71323" lon="1.4331">
        <ele>1123.87</ele>
        <time>2017-09-03T14:16:57Z</time>
      </trkpt>
      <trkpt lat="42.71325" lon="1.43335">
        <ele>1123.91</ele>
        <time>2017-09-03T14:17:12Z</time>
      </trkpt>
      <trkpt lat="42.71332" lon="1.43358">
        <ele>1128.92</ele>
        <time>2017-09-03T14:17:26Z</time>
      </trkpt>
      <trkpt lat="42.71339" lon="1.43381">
        <ele>1125.24</ele>
        <time>2017-09-03T14:17:42Z</time>
      </trkpt>
      <trkpt lat="42.7135" lon="1.43402">
        <ele>1123.19</ele>
        <time>2017-09-03T14:17:59Z</time>
      </trkpt>
      <trkpt lat="42.71363" lon="1.4342">
        <ele>1118.23</ele>
        <time>2017-09-03T14:18:17Z</time>
      </trkpt>
      <trkpt lat="42.71366" lon="1.43445">
        <ele>1116.36</ele>
        <time>2017-09-03T14:18:34Z</time>
      </trkpt>
      <trkpt lat="42.71369" lon="1.43469">
        <ele>1112.39</ele>
        <time>2017-09-03T14:18:48Z</time>
      </trkpt>
      <trkpt lat="42.71383" lon="1.43485">
        <ele>1114.12</ele>
        <time>2017-09-03T14:19:05Z</time>
      </trkpt>
      <trkpt lat="42.71397" lon="1.43502">
        <ele>1117.42</ele>
        <time>2017-09-03T14:19:23Z</time>
      </trkpt>
    </trkseg>
  </trk>
</gpx>